SWR16F LSZH-KJFK
Flight info
| Callsign | SWR16F |
|---|---|
| Flight time | 7h 59m |
| Altitude | 34000 |
| Route | VEBIT T10 TORPA DCT REKLA DCT RLP DCT ROTSI/N0456F360 DCT AMODO DCT COHPA UM729 RESMI UN491 LGL UN502 JSY DCT LIZAD DCT GAPLI/M079F380 DCT SOMAX NATG ELSIR/N0474F400 N398B TUSKY DCT PLYMM PARCH4 |
| Aircraft | A343/H-SDE2E3FGHIJ4J5M1RWXY/LB1D1 |
Departure
| Time | 2026-05-04 11:08 |
|---|---|
| Airport | Zürich Airport (LSZH) |
Arrival
| Time | 2026-05-04 19:07 |
|---|---|
| Airport | John F. Kennedy International Airport (KJFK) |
| Time | Latitude | Longitude | Altitude | Speed | Heading |
|---|---|---|---|---|---|
| 2026-05-04 10:21 | 47.46197 | 8.55190 | 1398 ft | 0 kts | 185° |
| 2026-05-04 10:56 | 47.46241 | 8.55198 | 1408 ft | 3 kts | 200° |
| 2026-05-04 10:56 | 47.46259 | 8.55211 | 1408 ft | 3 kts | 222° |
| 2026-05-04 10:56 | 47.46271 | 8.55232 | 1408 ft | 3 kts | 252° |
| 2026-05-04 10:57 | 47.46273 | 8.55255 | 1408 ft | 1 kts | 276° |
| 2026-05-04 10:57 | 47.46272 | 8.55275 | 1406 ft | 3 kts | 276° |
| 2026-05-04 10:57 | 47.46270 | 8.55297 | 1409 ft | 1 kts | 276° |
| 2026-05-04 10:57 | 47.46270 | 8.55299 | 1409 ft | 0 kts | 276° |
| 2026-05-04 11:00 | 47.46271 | 8.55296 | 1398 ft | 1 kts | 276° |
| 2026-05-04 11:01 | 47.46465 | 8.54634 | 1387 ft | 13 kts | 335° |
| 2026-05-04 11:02 | 47.46540 | 8.54582 | 1402 ft | 11 kts | 334° |
| 2026-05-04 11:02 | 47.46615 | 8.54530 | 1401 ft | 13 kts | 335° |
| 2026-05-04 11:05 | 47.47514 | 8.53633 | 1409 ft | 0 kts | 155° |
| 2026-05-04 11:06 | 47.47395 | 8.53715 | 1403 ft | 45 kts | 155° |
| 2026-05-04 11:06 | 47.46933 | 8.54036 | 1384 ft | 99 kts | 155° |
| 2026-05-04 11:06 | 47.46176 | 8.54558 | 1401 ft | 140 kts | 155° |
| 2026-05-04 11:06 | 47.45180 | 8.55232 | 1460 ft | 168 kts | 154° |
| 2026-05-04 11:08 | 47.43136 | 8.48147 | 4535 ft | 264 kts | 290° |
| 2026-05-04 11:10 | 47.35424 | 8.34962 | 10052 ft | 270 kts | 247° |
| 2026-05-04 11:12 | 47.30201 | 8.13962 | 13208 ft | 339 kts | 249° |
| 2026-05-04 11:12 | 47.29379 | 8.10670 | 13839 ft | 342 kts | 249° |
| 2026-05-04 11:12 | 47.28550 | 8.07358 | 14413 ft | 346 kts | 249° |
| 2026-05-04 11:12 | 47.27719 | 8.04019 | 14953 ft | 350 kts | 249° |
| 2026-05-04 11:13 | 47.27127 | 8.00552 | 15470 ft | 356 kts | 261° |
| 2026-05-04 11:13 | 47.27101 | 7.96887 | 16018 ft | 363 kts | 271° |
| 2026-05-04 11:13 | 47.27353 | 7.93147 | 16555 ft | 368 kts | 274° |
| 2026-05-04 11:13 | 47.27731 | 7.89390 | 17073 ft | 373 kts | 276° |
| 2026-05-04 11:14 | 47.28154 | 7.85598 | 17585 ft | 377 kts | 276° |
| 2026-05-04 11:14 | 47.28439 | 7.83058 | 17942 ft | 380 kts | 276° |
| 2026-05-04 11:14 | 47.28858 | 7.79202 | 18441 ft | 384 kts | 275° |
| 2026-05-04 11:16 | 47.32855 | 7.51623 | 21824 ft | 406 kts | 284° |
| 2026-05-04 11:16 | 47.33725 | 7.47652 | 22267 ft | 409 kts | 284° |
| 2026-05-04 11:16 | 47.34595 | 7.43707 | 22758 ft | 410 kts | 284° |
| 2026-05-04 11:17 | 47.35477 | 7.39693 | 23189 ft | 412 kts | 284° |
| 2026-05-04 11:17 | 47.36357 | 7.35650 | 23656 ft | 414 kts | 284° |
| 2026-05-04 11:19 | 47.42018 | 7.06686 | 26091 ft | 425 kts | 278° |
| 2026-05-04 11:19 | 47.42651 | 7.02398 | 26426 ft | 427 kts | 277° |
| 2026-05-04 11:19 | 47.43278 | 6.98094 | 26732 ft | 429 kts | 277° |
| 2026-05-04 11:19 | 47.43904 | 6.93764 | 27055 ft | 431 kts | 277° |
| 2026-05-04 11:20 | 47.44523 | 6.89478 | 27355 ft | 433 kts | 277° |
| 2026-05-04 11:20 | 47.45155 | 6.85106 | 27647 ft | 435 kts | 277° |
| 2026-05-04 11:20 | 47.45789 | 6.80717 | 27939 ft | 437 kts | 277° |
| 2026-05-04 11:20 | 47.46425 | 6.76319 | 28248 ft | 438 kts | 277° |
| 2026-05-04 11:22 | 47.49458 | 6.44847 | 30130 ft | 447 kts | 270° |
| 2026-05-04 11:22 | 47.49777 | 6.40260 | 30358 ft | 449 kts | 270° |
| 2026-05-04 11:23 | 47.50099 | 6.35645 | 30556 ft | 450 kts | 270° |
| 2026-05-04 11:23 | 47.50417 | 6.31081 | 30783 ft | 451 kts | 270° |
| 2026-05-04 11:24 | 47.52326 | 6.03367 | 32412 ft | 449 kts | 270° |
| 2026-05-04 11:25 | 47.52637 | 5.98744 | 32717 ft | 448 kts | 270° |
| 2026-05-04 11:25 | 47.52967 | 5.94156 | 33002 ft | 449 kts | 273° |
| 2026-05-04 11:25 | 47.53598 | 5.89651 | 33277 ft | 453 kts | 281° |
| 2026-05-04 11:26 | 47.56279 | 5.81096 | 33747 ft | 468 kts | 299° |
| 2026-05-04 11:27 | 47.71556 | 5.56028 | 34015 ft | 463 kts | 307° |
| 2026-05-04 11:28 | 47.75888 | 5.49003 | 34014 ft | 463 kts | 307° |
| 2026-05-04 11:28 | 47.80240 | 5.41909 | 34013 ft | 465 kts | 307° |
| 2026-05-04 11:29 | 47.84582 | 5.34813 | 34004 ft | 467 kts | 307° |
| 2026-05-04 11:29 | 47.88963 | 5.27642 | 34004 ft | 467 kts | 307° |
| 2026-05-04 11:33 | 48.19400 | 4.77270 | 33987 ft | 467 kts | 306° |
| 2026-05-04 11:33 | 48.23732 | 4.70004 | 34011 ft | 465 kts | 305° |
| 2026-05-04 11:34 | 48.27136 | 4.61900 | 34051 ft | 454 kts | 286° |
| 2026-05-04 11:34 | 48.28684 | 4.52865 | 34198 ft | 449 kts | 274° |
| 2026-05-04 11:35 | 48.29157 | 4.48220 | 34310 ft | 449 kts | 272° |
| 2026-05-04 11:35 | 48.29580 | 4.43568 | 34466 ft | 449 kts | 272° |
| 2026-05-04 11:35 | 48.29985 | 4.38913 | 34629 ft | 449 kts | 272° |
| 2026-05-04 11:35 | 48.30382 | 4.34311 | 34804 ft | 449 kts | 272° |
| 2026-05-04 11:36 | 48.30789 | 4.29658 | 34969 ft | 449 kts | 272° |
| 2026-05-04 11:36 | 48.31202 | 4.24987 | 35145 ft | 450 kts | 272° |
| 2026-05-04 11:36 | 48.31618 | 4.20308 | 35278 ft | 451 kts | 272° |
| 2026-05-04 11:36 | 48.32036 | 4.15640 | 35462 ft | 450 kts | 272° |
| 2026-05-04 11:37 | 48.32448 | 4.11026 | 35628 ft | 450 kts | 272° |
| 2026-05-04 11:37 | 48.32863 | 4.06374 | 35796 ft | 449 kts | 272° |
| 2026-05-04 11:37 | 48.33277 | 4.01700 | 35950 ft | 449 kts | 272° |
| 2026-05-04 11:37 | 48.33688 | 3.97029 | 35993 ft | 450 kts | 272° |
| 2026-05-04 11:38 | 48.34501 | 3.87745 | 35993 ft | 446 kts | 272° |
| 2026-05-04 11:38 | 48.35301 | 3.78501 | 35986 ft | 445 kts | 272° |
| 2026-05-04 11:39 | 48.36086 | 3.69321 | 35973 ft | 445 kts | 272° |
| 2026-05-04 11:41 | 48.38797 | 3.36981 | 35974 ft | 446 kts | 272° |
| 2026-05-04 11:41 | 48.39557 | 3.27689 | 35974 ft | 447 kts | 272° |
| 2026-05-04 11:42 | 48.40312 | 3.18392 | 35977 ft | 447 kts | 272° |
| 2026-05-04 11:42 | 48.41055 | 3.09151 | 35976 ft | 447 kts | 272° |
| 2026-05-04 11:43 | 48.41827 | 2.99825 | 35998 ft | 449 kts | 275° |
| 2026-05-04 11:43 | 48.43336 | 2.90685 | 35974 ft | 454 kts | 281° |
| 2026-05-04 11:44 | 48.45083 | 2.81520 | 35979 ft | 455 kts | 281° |
| 2026-05-04 11:44 | 48.46857 | 2.72353 | 35976 ft | 455 kts | 281° |
| 2026-05-04 11:45 | 48.48613 | 2.63168 | 35978 ft | 455 kts | 281° |
| 2026-05-04 11:45 | 48.50340 | 2.54044 | 35983 ft | 455 kts | 281° |
| 2026-05-04 11:46 | 48.52076 | 2.44816 | 35969 ft | 456 kts | 281° |
| 2026-05-04 11:46 | 48.53803 | 2.35597 | 35986 ft | 456 kts | 281° |
| 2026-05-04 11:47 | 48.55515 | 2.26423 | 35986 ft | 456 kts | 281° |
| 2026-05-04 11:47 | 48.57224 | 2.17193 | 35972 ft | 456 kts | 280° |
| 2026-05-04 11:48 | 48.58618 | 2.07871 | 35966 ft | 454 kts | 276° |
| 2026-05-04 11:48 | 48.59822 | 1.98555 | 35970 ft | 454 kts | 276° |
| 2026-05-04 11:49 | 48.61069 | 1.89185 | 35970 ft | 455 kts | 277° |
| 2026-05-04 11:49 | 48.62356 | 1.79804 | 35974 ft | 455 kts | 277° |
| 2026-05-04 11:50 | 48.63644 | 1.70469 | 35977 ft | 455 kts | 277° |
| 2026-05-04 11:50 | 48.64939 | 1.61033 | 35973 ft | 457 kts | 277° |
| 2026-05-04 11:51 | 48.66209 | 1.51653 | 35976 ft | 458 kts | 277° |
| 2026-05-04 11:51 | 48.67472 | 1.42201 | 35976 ft | 457 kts | 277° |
| 2026-05-04 11:52 | 48.68722 | 1.32815 | 35979 ft | 457 kts | 277° |
| 2026-05-04 11:52 | 48.69980 | 1.23351 | 35978 ft | 458 kts | 277° |
| 2026-05-04 11:53 | 48.71223 | 1.13876 | 35980 ft | 459 kts | 277° |
| 2026-05-04 11:53 | 48.72456 | 1.04433 | 35965 ft | 459 kts | 277° |
| 2026-05-04 11:55 | 48.77352 | 0.66473 | 35963 ft | 459 kts | 277° |
| 2026-05-04 11:56 | 48.78557 | 0.56973 | 35974 ft | 459 kts | 277° |
| 2026-05-04 11:56 | 48.79844 | 0.47541 | 35968 ft | 460 kts | 281° |
| 2026-05-04 11:57 | 48.81593 | 0.38180 | 35966 ft | 461 kts | 283° |
| 2026-05-04 11:57 | 48.83398 | 0.28841 | 35969 ft | 460 kts | 282° |
| 2026-05-04 11:58 | 48.85111 | 0.19530 | 35972 ft | 459 kts | 282° |
| 2026-05-04 11:58 | 48.86783 | 0.10161 | 35978 ft | 459 kts | 282° |
| 2026-05-04 11:59 | 48.88446 | 0.00775 | 35977 ft | 459 kts | 282° |
| 2026-05-04 11:59 | 48.90100 | -0.08578 | 35985 ft | 461 kts | 282° |
| 2026-05-04 12:00 | 48.91760 | -0.18018 | 35995 ft | 461 kts | 282° |
| 2026-05-04 12:00 | 48.93409 | -0.27459 | 36001 ft | 461 kts | 281° |
| 2026-05-04 12:01 | 48.95005 | -0.36863 | 36011 ft | 461 kts | 281° |
| 2026-05-04 12:02 | 49.00523 | -0.69948 | 36008 ft | 461 kts | 281° |
| 2026-05-04 12:03 | 49.02090 | -0.79430 | 36008 ft | 461 kts | 281° |
| 2026-05-04 12:03 | 49.03389 | -0.87337 | 36005 ft | 461 kts | 281° |
| 2026-05-04 12:04 | 49.05192 | -0.98370 | 35999 ft | 461 kts | 281° |
| 2026-05-04 12:04 | 49.06476 | -1.06274 | 36002 ft | 461 kts | 281° |
| 2026-05-04 12:05 | 49.08011 | -1.15773 | 36003 ft | 461 kts | 281° |
| 2026-05-04 12:05 | 49.09543 | -1.25253 | 36007 ft | 462 kts | 281° |
| 2026-05-04 12:06 | 49.11093 | -1.34819 | 36017 ft | 463 kts | 281° |
| 2026-05-04 12:06 | 49.12621 | -1.44302 | 36004 ft | 462 kts | 281° |
| 2026-05-04 12:07 | 49.14151 | -1.53857 | 36001 ft | 462 kts | 281° |
| 2026-05-04 12:07 | 49.15670 | -1.63414 | 36001 ft | 462 kts | 281° |
| 2026-05-04 12:08 | 49.17171 | -1.72913 | 36004 ft | 462 kts | 281° |
| 2026-05-04 12:08 | 49.18677 | -1.82492 | 36007 ft | 463 kts | 281° |
| 2026-05-04 12:09 | 49.20178 | -1.92104 | 36015 ft | 465 kts | 281° |
| 2026-05-04 12:09 | 49.21673 | -2.01728 | 36019 ft | 465 kts | 280° |
| 2026-05-04 12:10 | 49.23205 | -2.11301 | 36010 ft | 465 kts | 282° |
| 2026-05-04 12:10 | 49.24874 | -2.20883 | 36016 ft | 465 kts | 282° |
| 2026-05-04 12:11 | 49.26536 | -2.30422 | 36014 ft | 467 kts | 282° |
| 2026-05-04 12:11 | 49.28186 | -2.40067 | 36020 ft | 467 kts | 282° |
| 2026-05-04 12:12 | 49.29817 | -2.49724 | 36023 ft | 468 kts | 282° |
| 2026-05-04 12:12 | 49.31439 | -2.59395 | 36017 ft | 468 kts | 282° |
| 2026-05-04 12:14 | 49.37837 | -2.98049 | 36023 ft | 468 kts | 282° |
| 2026-05-04 12:15 | 49.39421 | -3.07761 | 36021 ft | 468 kts | 282° |
| 2026-05-04 12:15 | 49.41000 | -3.17490 | 36027 ft | 468 kts | 282° |
| 2026-05-04 12:16 | 49.42559 | -3.27159 | 36023 ft | 468 kts | 282° |
| 2026-05-04 12:16 | 49.44118 | -3.36880 | 36023 ft | 468 kts | 281° |
| 2026-05-04 12:17 | 49.45659 | -3.46545 | 36025 ft | 468 kts | 281° |
| 2026-05-04 12:17 | 49.47203 | -3.56288 | 36023 ft | 468 kts | 281° |
| 2026-05-04 12:18 | 49.48740 | -3.66050 | 36025 ft | 469 kts | 282° |
| 2026-05-04 12:18 | 49.50261 | -3.75762 | 36022 ft | 470 kts | 282° |
| 2026-05-04 12:19 | 49.51787 | -3.85559 | 36020 ft | 470 kts | 282° |
| 2026-05-04 12:19 | 49.53303 | -3.95360 | 36019 ft | 470 kts | 281° |
| 2026-05-04 12:20 | 49.54801 | -4.05101 | 36028 ft | 470 kts | 282° |
| 2026-05-04 12:20 | 49.56303 | -4.14924 | 36028 ft | 471 kts | 282° |
| 2026-05-04 12:21 | 49.57796 | -4.24757 | 36014 ft | 471 kts | 282° |
| 2026-05-04 12:21 | 49.59273 | -4.34533 | 36017 ft | 471 kts | 282° |
| 2026-05-04 12:22 | 49.60597 | -4.44431 | 36024 ft | 470 kts | 279° |
| 2026-05-04 12:22 | 49.61802 | -4.54357 | 36024 ft | 471 kts | 279° |
| 2026-05-04 12:23 | 49.63012 | -4.64233 | 36022 ft | 472 kts | 279° |
| 2026-05-04 12:23 | 49.64252 | -4.74204 | 36023 ft | 472 kts | 279° |
| 2026-05-04 12:24 | 49.65483 | -4.84103 | 36021 ft | 472 kts | 280° |
| 2026-05-04 12:24 | 49.66716 | -4.94090 | 36022 ft | 473 kts | 280° |
| 2026-05-04 12:25 | 49.67940 | -5.04088 | 36019 ft | 473 kts | 280° |
| 2026-05-04 12:25 | 49.69154 | -5.14088 | 36018 ft | 473 kts | 279° |
| 2026-05-04 12:26 | 49.70351 | -5.24025 | 36016 ft | 473 kts | 279° |
| 2026-05-04 12:26 | 49.71549 | -5.34040 | 36021 ft | 473 kts | 279° |
| 2026-05-04 12:27 | 49.72736 | -5.44044 | 36022 ft | 473 kts | 279° |
| 2026-05-04 12:27 | 49.73912 | -5.54032 | 36016 ft | 475 kts | 279° |
| 2026-05-04 12:28 | 49.75087 | -5.64085 | 36015 ft | 475 kts | 279° |
| 2026-05-04 12:28 | 49.76252 | -5.74149 | 36014 ft | 475 kts | 279° |
| 2026-05-04 12:29 | 49.77395 | -5.84155 | 36021 ft | 475 kts | 279° |
| 2026-05-04 12:29 | 49.78541 | -5.94247 | 36019 ft | 475 kts | 279° |
| 2026-05-04 12:30 | 49.79683 | -6.04350 | 36016 ft | 476 kts | 279° |
| 2026-05-04 12:30 | 49.80810 | -6.14394 | 36015 ft | 476 kts | 279° |
| 2026-05-04 12:31 | 49.81939 | -6.24532 | 36020 ft | 480 kts | 279° |
| 2026-05-04 12:31 | 49.83075 | -6.34823 | 36020 ft | 487 kts | 279° |
| 2026-05-04 12:32 | 49.84772 | -6.50366 | 36017 ft | 489 kts | 279° |
| 2026-05-04 12:33 | 49.85895 | -6.60758 | 36017 ft | 489 kts | 279° |
| 2026-05-04 12:33 | 49.87013 | -6.71201 | 36023 ft | 496 kts | 279° |
| 2026-05-04 12:34 | 49.88144 | -6.81851 | 36014 ft | 503 kts | 279° |
| 2026-05-04 12:34 | 49.89277 | -6.92626 | 36014 ft | 505 kts | 279° |
| 2026-05-04 12:35 | 49.90391 | -7.03329 | 36012 ft | 504 kts | 279° |
| 2026-05-04 12:35 | 49.91503 | -7.14100 | 36011 ft | 504 kts | 279° |
| 2026-05-04 12:36 | 49.92595 | -7.24775 | 36013 ft | 504 kts | 279° |
| 2026-05-04 12:36 | 49.93683 | -7.35518 | 36017 ft | 504 kts | 279° |
| 2026-05-04 12:37 | 49.94764 | -7.46296 | 36021 ft | 504 kts | 279° |
| 2026-05-04 12:37 | 49.95825 | -7.56985 | 36010 ft | 502 kts | 279° |
| 2026-05-04 12:38 | 49.96882 | -7.67726 | 36017 ft | 501 kts | 279° |
| 2026-05-04 12:38 | 49.97926 | -7.78443 | 36018 ft | 501 kts | 280° |
| 2026-05-04 12:39 | 49.98955 | -7.89115 | 36024 ft | 503 kts | 280° |
| 2026-05-04 12:39 | 49.99918 | -7.99911 | 36222 ft | 504 kts | 275° |
| 2026-05-04 12:39 | 50.00149 | -8.05354 | 36428 ft | 503 kts | 274° |
| 2026-05-04 12:40 | 50.00335 | -8.10781 | 36595 ft | 503 kts | 274° |
| 2026-05-04 12:40 | 50.00645 | -8.21627 | 36803 ft | 505 kts | 273° |
| 2026-05-04 12:40 | 50.00790 | -8.27073 | 37024 ft | 503 kts | 274° |
| 2026-05-04 12:41 | 50.00933 | -8.32521 | 37164 ft | 503 kts | 274° |
| 2026-05-04 12:41 | 50.01220 | -8.43428 | 37391 ft | 504 kts | 274° |
| 2026-05-04 12:41 | 50.01361 | -8.48869 | 37619 ft | 502 kts | 273° |
| 2026-05-04 12:42 | 50.01499 | -8.54250 | 37751 ft | 502 kts | 273° |
| 2026-05-04 12:42 | 50.01772 | -8.65160 | 37914 ft | 504 kts | 273° |
| 2026-05-04 12:42 | 50.01904 | -8.70597 | 38041 ft | 504 kts | 273° |
| 2026-05-04 12:43 | 50.02035 | -8.76089 | 38052 ft | 505 kts | 273° |
| 2026-05-04 12:43 | 50.02285 | -8.86918 | 38053 ft | 502 kts | 273° |
| 2026-05-04 12:44 | 50.02525 | -8.97772 | 38058 ft | 501 kts | 273° |
| 2026-05-04 12:44 | 50.02756 | -9.08628 | 38059 ft | 502 kts | 273° |
| 2026-05-04 12:45 | 50.02975 | -9.19419 | 38058 ft | 501 kts | 273° |
| 2026-05-04 12:45 | 50.03184 | -9.30253 | 38058 ft | 500 kts | 273° |
| 2026-05-04 12:46 | 50.03384 | -9.41076 | 38058 ft | 499 kts | 273° |
| 2026-05-04 12:46 | 50.03572 | -9.51824 | 38058 ft | 499 kts | 273° |
| 2026-05-04 12:47 | 50.03751 | -9.62638 | 38069 ft | 499 kts | 273° |
| 2026-05-04 12:47 | 50.03920 | -9.73455 | 38072 ft | 499 kts | 273° |
| 2026-05-04 12:48 | 50.04078 | -9.84212 | 38073 ft | 499 kts | 272° |
| 2026-05-04 12:48 | 50.04227 | -9.94977 | 38073 ft | 499 kts | 272° |
| 2026-05-04 12:49 | 50.04366 | -10.05787 | 38078 ft | 499 kts | 272° |
| 2026-05-04 12:49 | 50.04494 | -10.16598 | 38075 ft | 500 kts | 272° |
| 2026-05-04 12:50 | 50.04613 | -10.27362 | 38084 ft | 500 kts | 272° |
| 2026-05-04 12:50 | 50.04722 | -10.38207 | 38085 ft | 500 kts | 272° |
| 2026-05-04 12:51 | 50.04821 | -10.49032 | 38084 ft | 500 kts | 272° |
| 2026-05-04 12:51 | 50.04909 | -10.59803 | 38081 ft | 500 kts | 272° |
| 2026-05-04 12:52 | 50.04989 | -10.70664 | 38094 ft | 500 kts | 272° |
| 2026-05-04 12:52 | 50.05057 | -10.81428 | 38094 ft | 501 kts | 272° |
| 2026-05-04 12:53 | 50.05116 | -10.92276 | 38097 ft | 501 kts | 272° |
| 2026-05-04 12:53 | 50.05157 | -11.03132 | 38093 ft | 500 kts | 272° |
| 2026-05-04 12:54 | 50.05203 | -11.13898 | 38098 ft | 501 kts | 272° |
| 2026-05-04 12:54 | 50.05228 | -11.22951 | 38110 ft | 501 kts | 272° |
| 2026-05-04 12:55 | 50.05250 | -11.35559 | 38114 ft | 501 kts | 272° |
| 2026-05-04 12:55 | 50.05258 | -11.44592 | 38117 ft | 501 kts | 272° |
| 2026-05-04 12:56 | 50.05257 | -11.55430 | 38125 ft | 501 kts | 272° |
| 2026-05-04 12:56 | 50.05248 | -11.66302 | 38131 ft | 502 kts | 272° |
| 2026-05-04 12:57 | 50.05227 | -11.77113 | 38118 ft | 502 kts | 272° |
| 2026-05-04 12:57 | 50.05197 | -11.87988 | 38126 ft | 502 kts | 272° |
| 2026-05-04 12:58 | 50.05156 | -11.98879 | 38132 ft | 502 kts | 272° |
| 2026-05-04 12:58 | 50.05106 | -12.09666 | 38139 ft | 501 kts | 272° |
| 2026-05-04 12:59 | 50.05045 | -12.20541 | 38146 ft | 501 kts | 272° |
| 2026-05-04 12:59 | 50.04974 | -12.31407 | 38151 ft | 501 kts | 272° |
| 2026-05-04 13:00 | 50.04893 | -12.42208 | 38135 ft | 501 kts | 272° |
| 2026-05-04 13:00 | 50.04802 | -12.53078 | 38162 ft | 502 kts | 272° |
| 2026-05-04 13:01 | 50.04701 | -12.63963 | 38163 ft | 502 kts | 272° |
| 2026-05-04 13:01 | 50.04590 | -12.74784 | 38165 ft | 502 kts | 272° |
| 2026-05-04 13:02 | 50.04468 | -12.85661 | 38164 ft | 502 kts | 271° |
| 2026-05-04 13:02 | 50.04336 | -12.96525 | 38170 ft | 502 kts | 271° |
| 2026-05-04 13:03 | 50.04195 | -13.07326 | 38176 ft | 502 kts | 271° |
| 2026-05-04 13:03 | 50.04043 | -13.18188 | 38179 ft | 502 kts | 271° |
| 2026-05-04 13:04 | 50.03881 | -13.29070 | 38182 ft | 502 kts | 271° |
| 2026-05-04 13:04 | 50.03710 | -13.39873 | 38178 ft | 501 kts | 271° |
| 2026-05-04 13:05 | 50.03527 | -13.50721 | 38184 ft | 501 kts | 271° |
| 2026-05-04 13:05 | 50.03335 | -13.61568 | 38198 ft | 501 kts | 271° |
| 2026-05-04 13:06 | 50.03135 | -13.72333 | 38205 ft | 501 kts | 271° |
| 2026-05-04 13:06 | 50.02922 | -13.83190 | 38194 ft | 501 kts | 271° |
| 2026-05-04 13:07 | 50.02701 | -13.93965 | 38205 ft | 500 kts | 271° |
| 2026-05-04 13:07 | 50.02469 | -14.04769 | 38193 ft | 499 kts | 271° |
| 2026-05-04 13:08 | 50.02229 | -14.15498 | 38204 ft | 498 kts | 271° |
| 2026-05-04 13:08 | 50.01978 | -14.26261 | 38209 ft | 497 kts | 271° |
| 2026-05-04 13:09 | 50.01718 | -14.37020 | 38214 ft | 497 kts | 271° |
| 2026-05-04 13:09 | 50.01447 | -14.47795 | 38214 ft | 497 kts | 271° |
| 2026-05-04 13:10 | 50.01169 | -14.58473 | 38219 ft | 498 kts | 270° |
| 2026-05-04 13:10 | 50.00877 | -14.69257 | 38220 ft | 497 kts | 270° |
| 2026-05-04 13:11 | 50.00579 | -14.79944 | 38224 ft | 497 kts | 270° |
| 2026-05-04 13:11 | 50.00269 | -14.90668 | 38223 ft | 496 kts | 270° |
| 2026-05-04 13:12 | 50.00585 | -15.01303 | 38232 ft | 488 kts | 285° |
| 2026-05-04 13:12 | 50.02484 | -15.11311 | 38233 ft | 484 kts | 292° |
| 2026-05-04 13:13 | 50.04708 | -15.21228 | 38234 ft | 484 kts | 293° |
| 2026-05-04 13:13 | 50.06961 | -15.31131 | 38234 ft | 484 kts | 292° |
| 2026-05-04 13:14 | 50.09180 | -15.41030 | 38241 ft | 483 kts | 292° |
| 2026-05-04 13:14 | 50.11361 | -15.50883 | 38236 ft | 483 kts | 292° |
| 2026-05-04 13:15 | 50.13546 | -15.60817 | 38251 ft | 484 kts | 292° |
| 2026-05-04 13:15 | 50.15721 | -15.70753 | 38244 ft | 484 kts | 292° |
| 2026-05-04 13:16 | 50.17874 | -15.80632 | 38248 ft | 483 kts | 291° |
| 2026-05-04 13:16 | 50.20030 | -15.90572 | 38249 ft | 483 kts | 291° |
| 2026-05-04 13:17 | 50.22166 | -16.00465 | 38249 ft | 483 kts | 291° |
| 2026-05-04 13:17 | 50.24304 | -16.10415 | 38249 ft | 482 kts | 291° |
| 2026-05-04 13:18 | 50.26428 | -16.20352 | 38253 ft | 482 kts | 291° |
| 2026-05-04 13:18 | 50.28533 | -16.30245 | 38254 ft | 482 kts | 291° |
| 2026-05-04 13:19 | 50.30643 | -16.40214 | 38254 ft | 481 kts | 290° |
| 2026-05-04 13:19 | 50.32740 | -16.50168 | 38257 ft | 480 kts | 290° |
| 2026-05-04 13:20 | 50.34810 | -16.60041 | 38261 ft | 480 kts | 290° |
| 2026-05-04 13:20 | 50.36889 | -16.70010 | 38250 ft | 480 kts | 290° |
| 2026-05-04 13:21 | 50.38944 | -16.79908 | 38262 ft | 479 kts | 290° |
| 2026-05-04 13:21 | 50.41002 | -16.89873 | 38260 ft | 479 kts | 289° |
| 2026-05-04 13:22 | 50.43046 | -16.99821 | 38267 ft | 478 kts | 289° |
| 2026-05-04 13:22 | 50.45067 | -17.09705 | 38270 ft | 478 kts | 289° |
| 2026-05-04 13:23 | 50.47093 | -17.19662 | 38270 ft | 478 kts | 289° |
| 2026-05-04 13:23 | 50.49097 | -17.29563 | 38268 ft | 478 kts | 289° |
| 2026-05-04 13:24 | 50.51102 | -17.39517 | 38272 ft | 477 kts | 289° |
| 2026-05-04 13:24 | 50.53095 | -17.49465 | 38273 ft | 474 kts | 289° |
| 2026-05-04 13:25 | 50.56032 | -17.64218 | 38282 ft | 471 kts | 289° |
| 2026-05-04 13:25 | 50.57981 | -17.74068 | 38281 ft | 471 kts | 289° |
| 2026-05-04 13:26 | 50.59926 | -17.83942 | 38287 ft | 471 kts | 288° |
| 2026-05-04 13:26 | 50.61849 | -17.93764 | 38288 ft | 472 kts | 288° |
| 2026-05-04 13:27 | 50.63774 | -18.03644 | 38292 ft | 471 kts | 288° |
| 2026-05-04 13:27 | 50.65672 | -18.13442 | 38292 ft | 466 kts | 288° |
| 2026-05-04 13:28 | 50.67558 | -18.23219 | 38294 ft | 466 kts | 288° |
| 2026-05-04 13:28 | 50.69436 | -18.33004 | 38292 ft | 466 kts | 288° |
| 2026-05-04 13:29 | 50.71300 | -18.42768 | 38291 ft | 466 kts | 288° |
| 2026-05-04 13:29 | 50.73166 | -18.52595 | 38298 ft | 466 kts | 288° |
| 2026-05-04 13:30 | 50.75017 | -18.62397 | 38299 ft | 464 kts | 288° |
| 2026-05-04 13:30 | 50.76845 | -18.72122 | 38303 ft | 465 kts | 288° |
| 2026-05-04 13:31 | 50.78686 | -18.81965 | 38305 ft | 466 kts | 288° |
| 2026-05-04 13:31 | 50.80512 | -18.91788 | 38307 ft | 465 kts | 287° |
| 2026-05-04 13:32 | 50.82316 | -19.01544 | 38304 ft | 463 kts | 287° |
| 2026-05-04 13:32 | 50.84125 | -19.11377 | 38305 ft | 465 kts | 287° |
| 2026-05-04 13:33 | 50.85915 | -19.21157 | 38313 ft | 467 kts | 287° |
| 2026-05-04 13:33 | 50.87714 | -19.31040 | 38307 ft | 465 kts | 287° |
| 2026-05-04 13:34 | 50.89499 | -19.40899 | 38308 ft | 464 kts | 287° |
| 2026-05-04 13:34 | 50.91259 | -19.50677 | 38320 ft | 464 kts | 287° |
| 2026-05-04 13:35 | 50.93897 | -19.65427 | 38317 ft | 466 kts | 287° |
| 2026-05-04 13:36 | 50.95653 | -19.75313 | 38312 ft | 464 kts | 287° |
| 2026-05-04 13:36 | 50.97387 | -19.85127 | 38314 ft | 462 kts | 286° |
| 2026-05-04 13:37 | 50.99120 | -19.94991 | 38313 ft | 464 kts | 286° |
| 2026-05-04 13:37 | 51.00192 | -20.05110 | 38332 ft | 466 kts | 276° |
| 2026-05-04 13:38 | 51.00680 | -20.15285 | 38321 ft | 465 kts | 275° |
| 2026-05-04 13:38 | 51.01081 | -20.25547 | 38333 ft | 465 kts | 274° |
| 2026-05-04 13:39 | 51.01476 | -20.35845 | 38330 ft | 465 kts | 275° |
| 2026-05-04 13:39 | 51.01870 | -20.46039 | 38342 ft | 465 kts | 274° |
| 2026-05-04 13:40 | 51.02265 | -20.56317 | 38331 ft | 465 kts | 274° |
| 2026-05-04 13:40 | 51.02651 | -20.66581 | 38336 ft | 464 kts | 274° |
| 2026-05-04 13:41 | 51.03025 | -20.76788 | 38327 ft | 465 kts | 274° |
| 2026-05-04 13:41 | 51.03391 | -20.87016 | 38338 ft | 464 kts | 274° |
| 2026-05-04 13:42 | 51.03925 | -21.02435 | 38352 ft | 465 kts | 274° |
| 2026-05-04 13:42 | 51.04267 | -21.12656 | 38335 ft | 465 kts | 274° |
| 2026-05-04 13:43 | 51.04603 | -21.22930 | 38352 ft | 466 kts | 274° |
| 2026-05-04 13:43 | 51.04929 | -21.33196 | 38335 ft | 460 kts | 274° |
| 2026-05-04 13:44 | 51.05085 | -21.38228 | 38342 ft | 449 kts | 274° |
| 2026-05-04 13:44 | 51.05234 | -21.43104 | 38341 ft | 447 kts | 274° |
| 2026-05-04 13:44 | 51.05534 | -21.53036 | 38354 ft | 451 kts | 274° |
| 2026-05-04 13:45 | 51.05777 | -21.61310 | 38345 ft | 451 kts | 274° |
| 2026-05-04 13:45 | 51.06107 | -21.72919 | 38360 ft | 451 kts | 273° |
| 2026-05-04 13:46 | 51.06335 | -21.81206 | 38350 ft | 451 kts | 273° |
| 2026-05-04 13:46 | 51.06603 | -21.91193 | 38358 ft | 451 kts | 273° |
| 2026-05-04 13:47 | 51.06862 | -22.01188 | 38356 ft | 451 kts | 273° |
| 2026-05-04 13:47 | 51.07111 | -22.11099 | 38369 ft | 451 kts | 273° |
| 2026-05-04 13:48 | 51.07353 | -22.21092 | 38365 ft | 451 kts | 273° |
| 2026-05-04 13:48 | 51.07586 | -22.31062 | 38367 ft | 451 kts | 273° |
| 2026-05-04 13:49 | 51.07810 | -22.40985 | 38368 ft | 452 kts | 273° |
| 2026-05-04 13:49 | 51.08027 | -22.50991 | 38368 ft | 452 kts | 273° |
| 2026-05-04 13:50 | 51.08235 | -22.61013 | 38373 ft | 452 kts | 272° |
| 2026-05-04 13:50 | 51.08433 | -22.70939 | 38373 ft | 452 kts | 272° |
| 2026-05-04 13:51 | 51.08625 | -22.80943 | 38373 ft | 452 kts | 272° |
| 2026-05-04 13:51 | 51.08807 | -22.90951 | 38370 ft | 452 kts | 272° |
| 2026-05-04 13:52 | 51.09065 | -23.05912 | 38376 ft | 452 kts | 272° |
| 2026-05-04 13:53 | 51.09226 | -23.15920 | 38382 ft | 452 kts | 272° |
| 2026-05-04 13:53 | 51.09379 | -23.25938 | 38379 ft | 452 kts | 272° |
| 2026-05-04 13:54 | 51.09591 | -23.40889 | 38381 ft | 452 kts | 272° |
| 2026-05-04 13:55 | 51.09786 | -23.55917 | 38385 ft | 452 kts | 272° |
| 2026-05-04 13:55 | 51.09960 | -23.70867 | 38387 ft | 452 kts | 272° |
| 2026-05-04 13:56 | 51.10066 | -23.80883 | 38390 ft | 452 kts | 272° |
| 2026-05-04 13:57 | 51.10209 | -23.95862 | 38391 ft | 452 kts | 272° |
| 2026-05-04 13:58 | 51.10369 | -24.15880 | 38393 ft | 452 kts | 272° |
| 2026-05-04 13:58 | 51.10467 | -24.30823 | 38394 ft | 452 kts | 272° |
| 2026-05-04 13:59 | 51.10522 | -24.40827 | 38399 ft | 452 kts | 272° |
| 2026-05-04 14:00 | 51.10588 | -24.55780 | 38401 ft | 451 kts | 271° |
| 2026-05-04 14:00 | 51.10635 | -24.70713 | 38406 ft | 451 kts | 271° |
| 2026-05-04 14:01 | 51.10656 | -24.80704 | 38400 ft | 451 kts | 271° |
| 2026-05-04 14:02 | 51.10671 | -24.95657 | 38403 ft | 451 kts | 271° |
| 2026-05-04 14:02 | 51.10670 | -25.05648 | 38409 ft | 451 kts | 271° |
| 2026-05-04 14:03 | 51.10661 | -25.15588 | 38413 ft | 451 kts | 271° |
| 2026-05-04 14:03 | 51.10644 | -25.25579 | 38415 ft | 451 kts | 271° |
| 2026-05-04 14:04 | 51.10601 | -25.40567 | 38415 ft | 451 kts | 271° |
| 2026-05-04 14:04 | 51.10563 | -25.50492 | 38410 ft | 451 kts | 270° |
| 2026-05-04 14:05 | 51.10489 | -25.65457 | 38420 ft | 450 kts | 270° |
| 2026-05-04 14:06 | 51.10429 | -25.75443 | 38417 ft | 450 kts | 270° |
| 2026-05-04 14:06 | 51.10360 | -25.85414 | 38416 ft | 450 kts | 270° |
| 2026-05-04 14:07 | 51.10284 | -25.95329 | 38418 ft | 450 kts | 270° |
| 2026-05-04 14:07 | 51.10199 | -26.05292 | 38425 ft | 449 kts | 270° |
| 2026-05-04 14:08 | 51.10105 | -26.15195 | 38427 ft | 449 kts | 270° |
| 2026-05-04 14:08 | 51.10003 | -26.25146 | 38427 ft | 449 kts | 270° |
| 2026-05-04 14:09 | 51.09835 | -26.40068 | 38416 ft | 449 kts | 270° |
| 2026-05-04 14:10 | 51.09648 | -26.54911 | 38421 ft | 449 kts | 270° |
| 2026-05-04 14:10 | 51.09513 | -26.64797 | 38429 ft | 448 kts | 269° |
| 2026-05-04 14:11 | 51.09369 | -26.74729 | 38431 ft | 448 kts | 269° |
| 2026-05-04 14:11 | 51.09137 | -26.89627 | 38437 ft | 448 kts | 269° |
| 2026-05-04 14:12 | 51.08973 | -26.99552 | 38441 ft | 448 kts | 269° |
| 2026-05-04 14:13 | 51.08711 | -27.14345 | 38439 ft | 447 kts | 269° |
| 2026-05-04 14:13 | 51.08526 | -27.24239 | 38434 ft | 447 kts | 269° |
| 2026-05-04 14:14 | 51.08334 | -27.34077 | 38441 ft | 447 kts | 269° |
| 2026-05-04 14:14 | 51.08028 | -27.48921 | 38439 ft | 447 kts | 269° |
| 2026-05-04 14:15 | 51.07593 | -27.68616 | 38438 ft | 446 kts | 269° |
| 2026-05-04 14:16 | 51.07243 | -27.83433 | 38441 ft | 446 kts | 268° |
| 2026-05-04 14:17 | 51.06877 | -27.98183 | 38438 ft | 446 kts | 268° |
| 2026-05-04 14:18 | 51.06493 | -28.12906 | 38439 ft | 445 kts | 268° |
| 2026-05-04 14:19 | 51.05951 | -28.32570 | 38443 ft | 444 kts | 268° |
| 2026-05-04 14:19 | 51.05669 | -28.42346 | 38446 ft | 445 kts | 268° |
| 2026-05-04 14:20 | 51.05378 | -28.52165 | 38442 ft | 444 kts | 268° |
| 2026-05-04 14:20 | 51.05078 | -28.62000 | 38444 ft | 444 kts | 268° |
| 2026-05-04 14:21 | 51.04615 | -28.76654 | 38444 ft | 443 kts | 268° |
| 2026-05-04 14:21 | 51.04296 | -28.86464 | 38444 ft | 443 kts | 268° |
| 2026-05-04 14:22 | 51.03970 | -28.96201 | 38446 ft | 443 kts | 268° |
| 2026-05-04 14:22 | 51.03634 | -29.06006 | 38447 ft | 443 kts | 268° |
| 2026-05-04 14:23 | 51.03117 | -29.20628 | 38446 ft | 443 kts | 268° |
| 2026-05-04 14:24 | 51.02761 | -29.30433 | 38447 ft | 443 kts | 268° |
| 2026-05-04 14:24 | 51.02397 | -29.40191 | 38447 ft | 443 kts | 268° |
| 2026-05-04 14:25 | 51.02024 | -29.49993 | 38449 ft | 443 kts | 268° |
| 2026-05-04 14:25 | 51.01452 | -29.64612 | 38440 ft | 443 kts | 268° |
| 2026-05-04 14:26 | 51.01059 | -29.74414 | 38449 ft | 443 kts | 268° |
| 2026-05-04 14:26 | 51.00660 | -29.84132 | 38445 ft | 443 kts | 267° |
| 2026-05-04 14:27 | 51.00251 | -29.93928 | 38448 ft | 443 kts | 267° |
| 2026-05-04 14:27 | 51.00177 | -30.03710 | 38448 ft | 442 kts | 274° |
| 2026-05-04 14:28 | 51.00531 | -30.13395 | 38440 ft | 442 kts | 275° |
| 2026-05-04 14:28 | 51.00944 | -30.23145 | 38445 ft | 442 kts | 275° |
| 2026-05-04 14:29 | 51.01739 | -30.42594 | 38446 ft | 442 kts | 274° |
| 2026-05-04 14:30 | 51.02117 | -30.52350 | 38443 ft | 442 kts | 274° |
| 2026-05-04 14:31 | 51.02665 | -30.66924 | 38449 ft | 442 kts | 274° |
| 2026-05-04 14:32 | 51.03370 | -30.86437 | 38448 ft | 441 kts | 274° |
| 2026-05-04 14:32 | 51.03711 | -30.96170 | 38447 ft | 441 kts | 274° |
| 2026-05-04 14:33 | 51.04040 | -31.05842 | 38449 ft | 440 kts | 274° |
| 2026-05-04 14:33 | 51.04365 | -31.15609 | 38449 ft | 440 kts | 274° |
| 2026-05-04 14:34 | 51.04678 | -31.25263 | 38444 ft | 440 kts | 274° |
| 2026-05-04 14:34 | 51.04986 | -31.34993 | 38440 ft | 440 kts | 274° |
| 2026-05-04 14:35 | 51.05284 | -31.44696 | 38441 ft | 439 kts | 274° |
| 2026-05-04 14:35 | 51.05573 | -31.54338 | 38441 ft | 438 kts | 274° |
| 2026-05-04 14:36 | 51.05808 | -31.62391 | 38444 ft | 438 kts | 274° |
| 2026-05-04 14:36 | 51.06128 | -31.73669 | 38435 ft | 438 kts | 274° |
| 2026-05-04 14:37 | 51.06350 | -31.81743 | 38444 ft | 438 kts | 274° |
| 2026-05-04 14:37 | 51.06651 | -31.93014 | 38432 ft | 438 kts | 274° |
| 2026-05-04 14:38 | 51.06900 | -32.02673 | 38434 ft | 436 kts | 274° |
| 2026-05-04 14:38 | 51.07102 | -32.10762 | 38433 ft | 436 kts | 274° |
| 2026-05-04 14:39 | 51.07336 | -32.20368 | 38430 ft | 436 kts | 274° |
| 2026-05-04 14:39 | 51.07562 | -32.30015 | 38430 ft | 436 kts | 274° |
| 2026-05-04 14:40 | 51.07886 | -32.44456 | 38428 ft | 436 kts | 274° |
| 2026-05-04 14:40 | 51.08092 | -32.54090 | 38427 ft | 435 kts | 274° |
| 2026-05-04 14:41 | 51.08288 | -32.63636 | 38429 ft | 434 kts | 274° |
| 2026-05-04 14:42 | 51.08660 | -32.82819 | 38417 ft | 433 kts | 274° |
| 2026-05-04 14:42 | 51.08833 | -32.92354 | 38417 ft | 433 kts | 274° |
| 2026-05-04 14:43 | 51.08999 | -33.01933 | 38417 ft | 433 kts | 274° |
| 2026-05-04 14:43 | 51.09156 | -33.11515 | 38410 ft | 431 kts | 274° |
| 2026-05-04 14:44 | 51.09304 | -33.20986 | 38413 ft | 430 kts | 274° |
| 2026-05-04 14:44 | 51.09446 | -33.30516 | 38407 ft | 430 kts | 274° |
| 2026-05-04 14:45 | 51.09581 | -33.40055 | 38410 ft | 430 kts | 274° |
| 2026-05-04 14:45 | 51.09706 | -33.49522 | 38400 ft | 430 kts | 274° |
| 2026-05-04 14:46 | 51.09824 | -33.59043 | 38404 ft | 430 kts | 274° |
| 2026-05-04 14:46 | 51.09934 | -33.68527 | 38403 ft | 429 kts | 275° |
| 2026-05-04 14:47 | 51.10036 | -33.78005 | 38400 ft | 427 kts | 275° |
| 2026-05-04 14:47 | 51.10130 | -33.87410 | 38395 ft | 427 kts | 274° |
| 2026-05-04 14:48 | 51.10218 | -33.96877 | 38392 ft | 427 kts | 274° |
| 2026-05-04 14:48 | 51.10297 | -34.06344 | 38396 ft | 427 kts | 274° |
| 2026-05-04 14:49 | 51.10369 | -34.15748 | 38392 ft | 427 kts | 274° |
| 2026-05-04 14:49 | 51.10432 | -34.25224 | 38404 ft | 426 kts | 275° |
| 2026-05-04 14:50 | 51.10487 | -34.34583 | 38393 ft | 424 kts | 275° |
| 2026-05-04 14:50 | 51.10536 | -34.43977 | 38389 ft | 424 kts | 275° |
| 2026-05-04 14:51 | 51.10578 | -34.53332 | 38379 ft | 424 kts | 275° |
| 2026-05-04 14:51 | 51.10612 | -34.62722 | 38391 ft | 424 kts | 275° |
| 2026-05-04 14:52 | 51.10638 | -34.72117 | 38379 ft | 424 kts | 275° |
| 2026-05-04 14:52 | 51.10656 | -34.81514 | 38384 ft | 423 kts | 275° |
| 2026-05-04 14:53 | 51.10666 | -34.90815 | 38377 ft | 421 kts | 275° |
| 2026-05-04 14:53 | 51.10670 | -35.00144 | 38377 ft | 421 kts | 275° |
| 2026-05-04 14:54 | 51.10666 | -35.09497 | 38377 ft | 421 kts | 275° |
| 2026-05-04 14:54 | 51.10655 | -35.18754 | 38374 ft | 421 kts | 274° |
| 2026-05-04 14:55 | 51.10637 | -35.28084 | 38377 ft | 421 kts | 274° |
| 2026-05-04 14:55 | 51.10611 | -35.37411 | 38354 ft | 420 kts | 274° |
| 2026-05-04 14:56 | 51.10577 | -35.46645 | 38373 ft | 419 kts | 274° |
| 2026-05-04 14:56 | 51.10536 | -35.55923 | 38374 ft | 418 kts | 274° |
| 2026-05-04 14:57 | 51.10489 | -35.65145 | 38374 ft | 418 kts | 274° |
| 2026-05-04 14:57 | 51.10434 | -35.74408 | 38374 ft | 418 kts | 274° |
| 2026-05-04 14:58 | 51.10372 | -35.83685 | 38368 ft | 418 kts | 274° |
| 2026-05-04 14:58 | 51.10302 | -35.92944 | 38364 ft | 418 kts | 274° |
| 2026-05-04 14:59 | 51.10225 | -36.02165 | 38368 ft | 418 kts | 274° |
| 2026-05-04 15:00 | 51.10096 | -36.16043 | 38364 ft | 418 kts | 274° |
| 2026-05-04 15:00 | 51.10001 | -36.25238 | 38366 ft | 418 kts | 274° |
| 2026-05-04 15:01 | 51.09845 | -36.39124 | 38360 ft | 418 kts | 274° |
| 2026-05-04 15:01 | 51.09731 | -36.48383 | 38360 ft | 418 kts | 274° |
| 2026-05-04 15:02 | 51.09611 | -36.57579 | 38357 ft | 416 kts | 273° |
| 2026-05-04 15:02 | 51.09482 | -36.66783 | 38355 ft | 415 kts | 273° |
| 2026-05-04 15:03 | 51.09349 | -36.75937 | 38351 ft | 415 kts | 273° |
| 2026-05-04 15:03 | 51.09208 | -36.85127 | 38343 ft | 415 kts | 273° |
| 2026-05-04 15:04 | 51.09059 | -36.94314 | 38346 ft | 415 kts | 273° |
| 2026-05-04 15:04 | 51.08904 | -37.03448 | 38344 ft | 415 kts | 273° |
| 2026-05-04 15:05 | 51.08741 | -37.12644 | 38341 ft | 414 kts | 272° |
| 2026-05-04 15:05 | 51.08570 | -37.21750 | 38339 ft | 410 kts | 272° |
| 2026-05-04 15:06 | 51.08396 | -37.30789 | 38333 ft | 410 kts | 272° |
| 2026-05-04 15:07 | 51.08121 | -37.44408 | 38331 ft | 410 kts | 272° |
| 2026-05-04 15:07 | 51.07929 | -37.53438 | 38330 ft | 410 kts | 272° |
| 2026-05-04 15:08 | 51.07729 | -37.62515 | 38328 ft | 410 kts | 272° |
| 2026-05-04 15:08 | 51.07524 | -37.71520 | 38323 ft | 410 kts | 272° |
| 2026-05-04 15:09 | 51.07310 | -37.80615 | 38324 ft | 411 kts | 272° |
| 2026-05-04 15:09 | 51.07089 | -37.89710 | 38309 ft | 411 kts | 272° |
| 2026-05-04 15:10 | 51.06745 | -38.03279 | 38318 ft | 411 kts | 272° |
| 2026-05-04 15:11 | 51.06384 | -38.16928 | 38312 ft | 411 kts | 272° |
| 2026-05-04 15:11 | 51.06135 | -38.25978 | 38289 ft | 411 kts | 272° |
| 2026-05-04 15:12 | 51.05878 | -38.35071 | 38301 ft | 412 kts | 272° |
| 2026-05-04 15:12 | 51.05616 | -38.44112 | 38302 ft | 411 kts | 272° |
| 2026-05-04 15:13 | 51.05345 | -38.53208 | 38296 ft | 411 kts | 272° |
| 2026-05-04 15:13 | 51.05069 | -38.62248 | 38285 ft | 411 kts | 272° |
| 2026-05-04 15:14 | 51.04784 | -38.71343 | 38285 ft | 411 kts | 272° |
| 2026-05-04 15:14 | 51.04492 | -38.80427 | 38288 ft | 411 kts | 271° |
| 2026-05-04 15:15 | 51.04195 | -38.89453 | 38279 ft | 410 kts | 271° |
| 2026-05-04 15:15 | 51.03890 | -38.98521 | 38279 ft | 410 kts | 271° |
| 2026-05-04 15:16 | 51.03420 | -39.12069 | 38271 ft | 410 kts | 271° |
| 2026-05-04 15:17 | 51.02935 | -39.25619 | 38267 ft | 410 kts | 270° |
| 2026-05-04 15:17 | 51.02433 | -39.39186 | 38235 ft | 409 kts | 270° |
| 2026-05-04 15:18 | 51.02093 | -39.48158 | 38262 ft | 408 kts | 270° |
| 2026-05-04 15:19 | 51.01567 | -39.61672 | 38247 ft | 408 kts | 269° |
| 2026-05-04 15:19 | 51.01029 | -39.75107 | 38243 ft | 408 kts | 269° |
| 2026-05-04 15:20 | 51.00660 | -39.84102 | 38241 ft | 408 kts | 269° |
| 2026-05-04 15:20 | 51.00284 | -39.93088 | 38233 ft | 408 kts | 269° |
| 2026-05-04 15:21 | 50.99903 | -40.02030 | 38227 ft | 407 kts | 268° |
| 2026-05-04 15:22 | 50.99153 | -40.15434 | 38226 ft | 405 kts | 266° |
| 2026-05-04 15:22 | 50.98356 | -40.28756 | 38217 ft | 405 kts | 266° |
| 2026-05-04 15:23 | 50.97831 | -40.37670 | 38213 ft | 405 kts | 266° |
| 2026-05-04 15:23 | 50.97308 | -40.46522 | 38205 ft | 405 kts | 266° |
| 2026-05-04 15:24 | 50.96236 | -40.64280 | 38189 ft | 405 kts | 266° |
| 2026-05-04 15:25 | 50.95687 | -40.73197 | 38188 ft | 405 kts | 265° |
| 2026-05-04 15:26 | 50.94856 | -40.86479 | 38185 ft | 405 kts | 265° |
| 2026-05-04 15:26 | 50.94008 | -40.99802 | 38173 ft | 405 kts | 265° |
| 2026-05-04 15:27 | 50.93141 | -41.13162 | 38167 ft | 405 kts | 264° |
| 2026-05-04 15:28 | 50.92267 | -41.26391 | 38163 ft | 402 kts | 264° |
| 2026-05-04 15:29 | 50.91381 | -41.39571 | 38162 ft | 402 kts | 264° |
| 2026-05-04 15:30 | 50.89250 | -41.70405 | 38146 ft | 402 kts | 264° |
| 2026-05-04 15:31 | 50.88417 | -41.82156 | 38138 ft | 402 kts | 263° |
| 2026-05-04 15:32 | 50.86824 | -42.04144 | 38120 ft | 403 kts | 263° |
| 2026-05-04 15:34 | 50.85189 | -42.26137 | 38106 ft | 402 kts | 262° |
| 2026-05-04 15:34 | 50.84186 | -42.39342 | 38107 ft | 402 kts | 262° |
| 2026-05-04 15:35 | 50.83174 | -42.52463 | 38095 ft | 402 kts | 262° |
| 2026-05-04 15:36 | 50.82141 | -42.65661 | 38078 ft | 402 kts | 262° |
| 2026-05-04 15:36 | 50.81450 | -42.74391 | 38078 ft | 402 kts | 262° |
| 2026-05-04 15:37 | 50.80748 | -42.83173 | 38081 ft | 401 kts | 261° |
| 2026-05-04 15:37 | 50.80042 | -42.91917 | 38062 ft | 400 kts | 261° |
| 2026-05-04 15:38 | 50.79335 | -43.00582 | 38065 ft | 400 kts | 261° |
| 2026-05-04 15:38 | 50.78615 | -43.09333 | 38056 ft | 400 kts | 261° |
| 2026-05-04 15:39 | 50.77889 | -43.18072 | 38052 ft | 400 kts | 261° |
| 2026-05-04 15:40 | 50.76794 | -43.31105 | 38032 ft | 400 kts | 260° |
| 2026-05-04 15:40 | 50.76051 | -43.39846 | 38031 ft | 400 kts | 259° |
| 2026-05-04 15:41 | 50.75309 | -43.48507 | 38034 ft | 400 kts | 259° |
| 2026-05-04 15:41 | 50.74554 | -43.57219 | 38023 ft | 399 kts | 259° |
| 2026-05-04 15:42 | 50.73800 | -43.65858 | 38015 ft | 399 kts | 259° |
| 2026-05-04 15:42 | 50.73033 | -43.74561 | 38004 ft | 399 kts | 259° |
| 2026-05-04 15:43 | 50.72259 | -43.83267 | 38002 ft | 400 kts | 259° |
| 2026-05-04 15:43 | 50.71481 | -43.91966 | 37992 ft | 399 kts | 258° |
| 2026-05-04 15:44 | 50.70696 | -44.00645 | 37973 ft | 399 kts | 258° |
| 2026-05-04 15:44 | 50.69910 | -44.09266 | 37980 ft | 399 kts | 258° |
| 2026-05-04 15:45 | 50.69112 | -44.17941 | 37979 ft | 399 kts | 258° |
| 2026-05-04 15:45 | 50.68313 | -44.26559 | 37969 ft | 400 kts | 257° |
| 2026-05-04 15:46 | 50.67501 | -44.35245 | 37962 ft | 400 kts | 257° |
| 2026-05-04 15:46 | 50.66680 | -44.43958 | 37948 ft | 401 kts | 256° |
| 2026-05-04 15:47 | 50.65859 | -44.52603 | 37950 ft | 401 kts | 256° |
| 2026-05-04 15:47 | 50.65025 | -44.61297 | 37939 ft | 400 kts | 256° |
| 2026-05-04 15:48 | 50.64191 | -44.69936 | 37929 ft | 401 kts | 256° |
| 2026-05-04 15:48 | 50.62921 | -44.82959 | 37928 ft | 400 kts | 256° |
| 2026-05-04 15:49 | 50.62066 | -44.91632 | 37906 ft | 401 kts | 256° |
| 2026-05-04 15:49 | 50.61203 | -45.00324 | 37905 ft | 402 kts | 255° |
| 2026-05-04 15:50 | 50.60333 | -45.09000 | 37915 ft | 404 kts | 254° |
| 2026-05-04 15:50 | 50.59449 | -45.17762 | 37896 ft | 406 kts | 254° |
| 2026-05-04 15:51 | 50.58557 | -45.26532 | 37883 ft | 407 kts | 254° |
| 2026-05-04 15:51 | 50.57655 | -45.35350 | 37870 ft | 407 kts | 254° |
| 2026-05-04 15:52 | 50.56746 | -45.44160 | 37873 ft | 407 kts | 254° |
| 2026-05-04 15:52 | 50.55837 | -45.52902 | 37850 ft | 408 kts | 253° |
| 2026-05-04 15:53 | 50.54903 | -45.61776 | 37839 ft | 413 kts | 253° |
| 2026-05-04 15:53 | 50.53958 | -45.70720 | 37839 ft | 414 kts | 253° |
| 2026-05-04 15:54 | 50.53016 | -45.79598 | 37825 ft | 414 kts | 253° |
| 2026-05-04 15:54 | 50.52061 | -45.88511 | 37826 ft | 414 kts | 253° |
| 2026-05-04 15:55 | 50.51094 | -45.97454 | 37816 ft | 415 kts | 252° |
| 2026-05-04 15:55 | 50.50123 | -46.06366 | 37822 ft | 417 kts | 252° |
| 2026-05-04 15:56 | 50.49130 | -46.15399 | 37805 ft | 421 kts | 252° |
| 2026-05-04 15:56 | 50.48124 | -46.24497 | 37799 ft | 422 kts | 252° |
| 2026-05-04 15:57 | 50.47122 | -46.33524 | 37798 ft | 422 kts | 251° |
| 2026-05-04 15:57 | 50.46103 | -46.42615 | 37790 ft | 422 kts | 251° |
| 2026-05-04 15:58 | 50.45079 | -46.51687 | 37788 ft | 422 kts | 251° |
| 2026-05-04 15:58 | 50.44049 | -46.60731 | 37793 ft | 422 kts | 251° |
| 2026-05-04 15:59 | 50.43001 | -46.69856 | 37771 ft | 427 kts | 251° |
| 2026-05-04 15:59 | 50.41935 | -46.79064 | 37767 ft | 430 kts | 250° |
| 2026-05-04 16:00 | 50.40865 | -46.88274 | 37774 ft | 432 kts | 250° |
| 2026-05-04 16:00 | 50.39782 | -46.97547 | 37775 ft | 432 kts | 250° |
| 2026-05-04 16:01 | 50.38692 | -47.06795 | 37768 ft | 432 kts | 250° |
| 2026-05-04 16:01 | 50.37597 | -47.16012 | 37767 ft | 432 kts | 250° |
| 2026-05-04 16:02 | 50.36490 | -47.25262 | 37755 ft | 431 kts | 250° |
| 2026-05-04 16:03 | 50.34814 | -47.39139 | 37735 ft | 431 kts | 250° |
| 2026-05-04 16:03 | 50.33694 | -47.48330 | 37729 ft | 431 kts | 250° |
| 2026-05-04 16:04 | 50.32562 | -47.57558 | 37740 ft | 432 kts | 249° |
| 2026-05-04 16:04 | 50.30844 | -47.71418 | 37724 ft | 436 kts | 249° |
| 2026-05-04 16:05 | 50.29671 | -47.80795 | 37725 ft | 441 kts | 249° |
| 2026-05-04 16:06 | 50.27894 | -47.94945 | 37710 ft | 441 kts | 249° |
| 2026-05-04 16:07 | 50.25506 | -48.13712 | 37711 ft | 440 kts | 249° |
| 2026-05-04 16:08 | 50.23079 | -48.32478 | 37699 ft | 444 kts | 249° |
| 2026-05-04 16:09 | 50.19964 | -48.56242 | 37687 ft | 448 kts | 249° |
| 2026-05-04 16:10 | 50.17437 | -48.75242 | 37703 ft | 448 kts | 249° |
| 2026-05-04 16:11 | 50.14871 | -48.94263 | 37665 ft | 448 kts | 249° |
| 2026-05-04 16:12 | 50.10954 | -49.22826 | 37652 ft | 451 kts | 249° |
| 2026-05-04 16:13 | 50.08282 | -49.41993 | 37647 ft | 454 kts | 250° |
| 2026-05-04 16:14 | 50.05571 | -49.61217 | 37635 ft | 454 kts | 249° |
| 2026-05-04 16:16 | 50.02141 | -49.85167 | 37619 ft | 455 kts | 249° |
| 2026-05-04 16:17 | 49.98285 | -50.07182 | 37611 ft | 449 kts | 242° |
| 2026-05-04 16:18 | 49.93910 | -50.25331 | 37594 ft | 449 kts | 242° |
| 2026-05-04 16:19 | 49.88363 | -50.48118 | 37589 ft | 452 kts | 242° |
| 2026-05-04 16:20 | 49.82786 | -50.70854 | 37620 ft | 452 kts | 242° |
| 2026-05-04 16:22 | 49.77155 | -50.93557 | 37569 ft | 454 kts | 242° |
| 2026-05-04 16:23 | 49.70274 | -51.20994 | 37549 ft | 457 kts | 242° |
| 2026-05-04 16:25 | 49.63308 | -51.48437 | 37531 ft | 458 kts | 242° |
| 2026-05-04 16:26 | 49.55089 | -51.80388 | 37502 ft | 458 kts | 242° |
| 2026-05-04 16:28 | 49.49141 | -52.03180 | 37637 ft | 463 kts | 241° |
| 2026-05-04 16:28 | 49.45143 | -52.16693 | 37891 ft | 466 kts | 239° |
| 2026-05-04 16:29 | 49.39692 | -52.34852 | 38368 ft | 468 kts | 240° |
| 2026-05-04 16:30 | 49.35636 | -52.48472 | 38804 ft | 466 kts | 240° |
| 2026-05-04 16:31 | 49.32955 | -52.57433 | 39050 ft | 465 kts | 240° |
| 2026-05-04 16:31 | 49.28881 | -52.70970 | 39342 ft | 465 kts | 240° |
| 2026-05-04 16:32 | 49.24837 | -52.84345 | 39446 ft | 457 kts | 240° |
| 2026-05-04 16:33 | 49.19516 | -53.01819 | 39407 ft | 454 kts | 240° |
| 2026-05-04 16:34 | 49.15484 | -53.14969 | 39398 ft | 455 kts | 240° |
| 2026-05-04 16:35 | 49.07412 | -53.41114 | 39361 ft | 453 kts | 240° |
| 2026-05-04 16:36 | 49.03374 | -53.54085 | 39362 ft | 453 kts | 240° |
| 2026-05-04 16:37 | 48.99303 | -53.67095 | 39356 ft | 452 kts | 240° |
| 2026-05-04 16:38 | 48.93883 | -53.84315 | 39325 ft | 451 kts | 240° |
| 2026-05-04 16:39 | 48.87096 | -54.05809 | 39305 ft | 453 kts | 243° |
| 2026-05-04 16:40 | 48.81738 | -54.23087 | 39293 ft | 452 kts | 242° |
| 2026-05-04 16:41 | 48.74843 | -54.44494 | 39279 ft | 452 kts | 242° |
| 2026-05-04 16:43 | 48.67904 | -54.65844 | 39264 ft | 452 kts | 242° |
| 2026-05-04 16:43 | 48.63720 | -54.78637 | 39244 ft | 452 kts | 242° |
| 2026-05-04 16:45 | 48.55325 | -55.04106 | 39197 ft | 453 kts | 242° |
| 2026-05-04 16:46 | 48.48255 | -55.25364 | 39191 ft | 456 kts | 242° |
| 2026-05-04 16:47 | 48.42502 | -55.42539 | 39159 ft | 461 kts | 242° |
| 2026-05-04 16:48 | 48.36691 | -55.59770 | 39137 ft | 460 kts | 241° |
| 2026-05-04 16:49 | 48.30884 | -55.76868 | 39121 ft | 460 kts | 241° |
| 2026-05-04 16:50 | 48.25047 | -55.93936 | 39118 ft | 460 kts | 242° |
| 2026-05-04 16:51 | 48.20623 | -56.06798 | 39106 ft | 463 kts | 242° |
| 2026-05-04 16:52 | 48.14701 | -56.23924 | 39091 ft | 464 kts | 241° |
| 2026-05-04 16:53 | 48.10248 | -56.36725 | 39093 ft | 463 kts | 241° |
| 2026-05-04 16:54 | 48.04282 | -56.53779 | 39117 ft | 461 kts | 241° |
| 2026-05-04 16:55 | 47.95326 | -56.79169 | 39138 ft | 459 kts | 241° |
| 2026-05-04 16:56 | 47.87854 | -57.00161 | 39207 ft | 460 kts | 241° |
| 2026-05-04 16:57 | 47.83335 | -57.12779 | 39234 ft | 460 kts | 241° |
| 2026-05-04 16:58 | 47.77306 | -57.29519 | 39251 ft | 458 kts | 240° |
| 2026-05-04 17:00 | 47.68256 | -57.54447 | 39282 ft | 456 kts | 241° |
| 2026-05-04 17:01 | 47.60709 | -57.75062 | 39290 ft | 455 kts | 240° |
| 2026-05-04 17:02 | 47.54649 | -57.91494 | 39308 ft | 456 kts | 241° |
| 2026-05-04 17:03 | 47.50086 | -58.03804 | 39320 ft | 455 kts | 241° |
| 2026-05-04 17:03 | 47.45494 | -58.16133 | 39337 ft | 456 kts | 241° |
| 2026-05-04 17:04 | 47.39372 | -58.32482 | 39352 ft | 454 kts | 241° |
| 2026-05-04 17:05 | 47.33245 | -58.48743 | 39361 ft | 454 kts | 241° |
| 2026-05-04 17:06 | 47.28636 | -58.60913 | 39383 ft | 453 kts | 241° |
| 2026-05-04 17:07 | 47.25058 | -58.70321 | 39398 ft | 451 kts | 241° |
| 2026-05-04 17:07 | 47.20957 | -58.81063 | 39396 ft | 452 kts | 241° |
| 2026-05-04 17:08 | 47.16831 | -58.91831 | 39407 ft | 454 kts | 241° |
| 2026-05-04 17:09 | 47.13729 | -58.99898 | 39420 ft | 451 kts | 241° |
| 2026-05-04 17:09 | 47.10655 | -59.07868 | 39425 ft | 450 kts | 241° |
| 2026-05-04 17:10 | 47.02914 | -59.27832 | 39450 ft | 450 kts | 241° |
| 2026-05-04 17:11 | 46.99808 | -59.35800 | 39450 ft | 450 kts | 241° |
| 2026-05-04 17:12 | 46.95122 | -59.47779 | 39454 ft | 451 kts | 241° |
| 2026-05-04 17:13 | 46.87313 | -59.67628 | 39467 ft | 451 kts | 241° |
| 2026-05-04 17:14 | 46.81030 | -59.83491 | 39476 ft | 450 kts | 240° |
| 2026-05-04 17:15 | 46.76315 | -59.95335 | 39478 ft | 451 kts | 240° |
| 2026-05-04 17:16 | 46.69978 | -60.11173 | 39458 ft | 454 kts | 240° |
| 2026-05-04 17:17 | 46.63585 | -60.27062 | 39440 ft | 454 kts | 240° |
| 2026-05-04 17:18 | 46.57190 | -60.42860 | 39435 ft | 454 kts | 240° |
| 2026-05-04 17:19 | 46.50776 | -60.58617 | 39457 ft | 453 kts | 240° |
| 2026-05-04 17:20 | 46.44361 | -60.74285 | 39517 ft | 448 kts | 240° |
| 2026-05-04 17:20 | 46.39603 | -60.85847 | 39529 ft | 447 kts | 240° |
| 2026-05-04 17:21 | 46.33195 | -61.01343 | 39551 ft | 448 kts | 240° |
| 2026-05-04 17:22 | 46.30003 | -61.09032 | 39554 ft | 448 kts | 240° |
| 2026-05-04 17:23 | 46.23560 | -61.24484 | 39573 ft | 448 kts | 240° |
| 2026-05-04 17:24 | 46.18741 | -61.35987 | 39587 ft | 446 kts | 240° |
| 2026-05-04 17:25 | 46.12257 | -61.51386 | 39601 ft | 452 kts | 240° |
| 2026-05-04 17:26 | 46.05704 | -61.66864 | 39614 ft | 450 kts | 240° |
| 2026-05-04 17:27 | 45.97543 | -61.86017 | 39628 ft | 449 kts | 240° |
| 2026-05-04 17:28 | 45.91006 | -62.01267 | 39631 ft | 448 kts | 240° |
| 2026-05-04 17:29 | 45.81191 | -62.24009 | 39626 ft | 448 kts | 240° |
| 2026-05-04 17:31 | 45.72988 | -62.42877 | 39647 ft | 446 kts | 240° |
| 2026-05-04 17:32 | 45.64759 | -62.61678 | 39655 ft | 445 kts | 240° |
| 2026-05-04 17:33 | 45.58197 | -62.76580 | 39656 ft | 443 kts | 240° |
| 2026-05-04 17:34 | 45.51622 | -62.91430 | 39663 ft | 443 kts | 240° |
| 2026-05-04 17:35 | 45.43334 | -63.10042 | 39677 ft | 446 kts | 239° |
| 2026-05-04 17:36 | 45.40015 | -63.17461 | 39673 ft | 446 kts | 239° |
| 2026-05-04 17:36 | 45.36679 | -63.24899 | 39691 ft | 445 kts | 239° |
| 2026-05-04 17:37 | 45.33336 | -63.32333 | 39702 ft | 445 kts | 239° |
| 2026-05-04 17:37 | 45.29996 | -63.39739 | 39703 ft | 444 kts | 239° |
| 2026-05-04 17:38 | 45.26665 | -63.47107 | 39709 ft | 444 kts | 239° |
| 2026-05-04 17:38 | 45.23320 | -63.54487 | 39718 ft | 443 kts | 239° |
| 2026-05-04 17:39 | 45.18324 | -63.65475 | 39718 ft | 442 kts | 239° |
| 2026-05-04 17:39 | 45.14982 | -63.72802 | 39726 ft | 442 kts | 239° |
| 2026-05-04 17:40 | 45.11649 | -63.80090 | 39730 ft | 443 kts | 239° |
| 2026-05-04 17:40 | 45.08289 | -63.87418 | 39733 ft | 443 kts | 239° |
| 2026-05-04 17:41 | 45.04920 | -63.94747 | 39738 ft | 443 kts | 239° |
| 2026-05-04 17:41 | 45.01568 | -64.02018 | 39738 ft | 443 kts | 239° |
| 2026-05-04 17:42 | 44.98190 | -64.09328 | 39734 ft | 443 kts | 239° |
| 2026-05-04 17:42 | 44.94819 | -64.16605 | 39747 ft | 442 kts | 239° |
| 2026-05-04 17:43 | 44.91445 | -64.23871 | 39743 ft | 441 kts | 239° |
| 2026-05-04 17:43 | 44.88093 | -64.31070 | 39741 ft | 441 kts | 239° |
| 2026-05-04 17:44 | 44.84712 | -64.38314 | 39743 ft | 441 kts | 239° |
| 2026-05-04 17:44 | 44.81326 | -64.45550 | 39745 ft | 440 kts | 239° |
| 2026-05-04 17:45 | 44.77958 | -64.52727 | 39745 ft | 438 kts | 239° |
| 2026-05-04 17:45 | 44.74611 | -64.59846 | 39747 ft | 439 kts | 239° |
| 2026-05-04 17:46 | 44.71234 | -64.67008 | 39749 ft | 439 kts | 239° |
| 2026-05-04 17:46 | 44.67850 | -64.74168 | 39756 ft | 438 kts | 239° |
| 2026-05-04 17:47 | 44.64473 | -64.81296 | 39765 ft | 438 kts | 239° |
| 2026-05-04 17:47 | 44.61105 | -64.88386 | 39773 ft | 438 kts | 239° |
| 2026-05-04 17:48 | 44.57663 | -64.95329 | 39761 ft | 420 kts | 234° |
| 2026-05-04 17:48 | 44.55990 | -64.98606 | 39759 ft | 405 kts | 236° |
| 2026-05-04 17:48 | 44.54419 | -65.01805 | 39784 ft | 392 kts | 237° |
| 2026-05-04 17:49 | 44.52938 | -65.04907 | 39785 ft | 381 kts | 238° |
| 2026-05-04 17:49 | 44.51488 | -65.07943 | 39779 ft | 368 kts | 236° |
| 2026-05-04 17:49 | 44.50070 | -65.10860 | 39788 ft | 355 kts | 236° |
| 2026-05-04 17:49 | 44.48699 | -65.13670 | 39783 ft | 342 kts | 236° |
| 2026-05-04 17:50 | 44.47384 | -65.16377 | 39782 ft | 330 kts | 236° |
| 2026-05-04 17:50 | 44.46123 | -65.18989 | 39786 ft | 318 kts | 236° |
| 2026-05-04 17:50 | 44.43676 | -65.24074 | 39809 ft | 314 kts | 236° |
| 2026-05-04 17:51 | 44.41241 | -65.29125 | 39805 ft | 316 kts | 236° |
| 2026-05-04 17:51 | 44.38770 | -65.34239 | 39815 ft | 318 kts | 236° |
| 2026-05-04 17:52 | 44.36279 | -65.39387 | 39726 ft | 324 kts | 236° |
| 2026-05-04 17:52 | 44.35015 | -65.41992 | 39508 ft | 332 kts | 236° |
| 2026-05-04 17:52 | 44.33697 | -65.44704 | 39314 ft | 341 kts | 236° |
| 2026-05-04 17:53 | 44.32341 | -65.47485 | 39131 ft | 350 kts | 236° |
| 2026-05-04 17:53 | 44.30951 | -65.50331 | 38932 ft | 359 kts | 236° |
| 2026-05-04 17:53 | 44.29519 | -65.53258 | 38730 ft | 369 kts | 236° |
| 2026-05-04 17:53 | 44.28067 | -65.56223 | 38539 ft | 378 kts | 236° |
| 2026-05-04 17:54 | 44.26560 | -65.59295 | 38333 ft | 388 kts | 236° |
| 2026-05-04 17:54 | 44.25015 | -65.62445 | 38104 ft | 397 kts | 236° |
| 2026-05-04 17:54 | 44.23430 | -65.65672 | 37877 ft | 406 kts | 236° |
| 2026-05-04 17:54 | 44.21818 | -65.68953 | 37831 ft | 412 kts | 236° |
| 2026-05-04 17:55 | 44.18601 | -65.75610 | 37829 ft | 420 kts | 238° |
| 2026-05-04 17:55 | 44.15344 | -65.82493 | 37835 ft | 430 kts | 238° |
| 2026-05-04 17:56 | 44.12006 | -65.89386 | 37831 ft | 430 kts | 237° |
| 2026-05-04 17:56 | 44.09204 | -65.95082 | 37840 ft | 429 kts | 237° |
| 2026-05-04 17:57 | 44.05816 | -66.01928 | 37848 ft | 428 kts | 237° |
| 2026-05-04 17:57 | 44.02430 | -66.08758 | 37847 ft | 428 kts | 237° |
| 2026-05-04 17:58 | 43.99045 | -66.15575 | 37849 ft | 428 kts | 237° |
| 2026-05-04 17:58 | 43.95687 | -66.22325 | 37848 ft | 427 kts | 237° |
| 2026-05-04 17:59 | 43.92299 | -66.29119 | 37848 ft | 427 kts | 237° |
| 2026-05-04 18:00 | 43.87241 | -66.39234 | 37847 ft | 427 kts | 237° |
| 2026-05-04 18:00 | 43.83851 | -66.45991 | 37848 ft | 426 kts | 237° |
| 2026-05-04 18:01 | 43.80467 | -66.52723 | 37848 ft | 425 kts | 237° |
| 2026-05-04 18:01 | 43.77085 | -66.59436 | 37848 ft | 425 kts | 237° |
| 2026-05-04 18:02 | 43.72015 | -66.69470 | 37840 ft | 425 kts | 237° |
| 2026-05-04 18:02 | 43.68621 | -66.76167 | 37856 ft | 425 kts | 237° |
| 2026-05-04 18:03 | 43.65233 | -66.82838 | 37854 ft | 426 kts | 237° |
| 2026-05-04 18:03 | 43.61812 | -66.89558 | 37859 ft | 427 kts | 237° |
| 2026-05-04 18:04 | 43.58409 | -66.96228 | 37832 ft | 426 kts | 237° |
| 2026-05-04 18:05 | 43.53721 | -67.06641 | 37853 ft | 425 kts | 241° |
| 2026-05-04 18:05 | 43.50768 | -67.13648 | 37856 ft | 425 kts | 241° |
| 2026-05-04 18:06 | 43.46312 | -67.24219 | 37855 ft | 425 kts | 241° |
| 2026-05-04 18:06 | 43.43339 | -67.31255 | 37857 ft | 425 kts | 241° |
| 2026-05-04 18:07 | 43.40371 | -67.38264 | 37860 ft | 425 kts | 241° |
| 2026-05-04 18:07 | 43.37387 | -67.45292 | 37861 ft | 425 kts | 241° |
| 2026-05-04 18:08 | 43.34396 | -67.52322 | 37857 ft | 425 kts | 241° |
| 2026-05-04 18:08 | 43.31419 | -67.59301 | 37868 ft | 425 kts | 241° |
| 2026-05-04 18:09 | 43.25432 | -67.73287 | 37857 ft | 424 kts | 241° |
| 2026-05-04 18:10 | 43.22456 | -67.80212 | 37861 ft | 424 kts | 241° |
| 2026-05-04 18:10 | 43.19453 | -67.87185 | 37863 ft | 424 kts | 241° |
| 2026-05-04 18:11 | 43.16450 | -67.94140 | 37877 ft | 423 kts | 240° |
| 2026-05-04 18:11 | 43.13467 | -68.01035 | 37877 ft | 423 kts | 240° |
| 2026-05-04 18:12 | 43.10456 | -68.07976 | 37863 ft | 424 kts | 240° |
| 2026-05-04 18:12 | 43.07436 | -68.14922 | 37866 ft | 424 kts | 240° |
| 2026-05-04 18:13 | 43.04414 | -68.21857 | 37872 ft | 424 kts | 240° |
| 2026-05-04 18:14 | 42.99893 | -68.32199 | 37874 ft | 423 kts | 240° |
| 2026-05-04 18:14 | 42.96864 | -68.39110 | 37879 ft | 423 kts | 240° |
| 2026-05-04 18:15 | 42.90808 | -68.52875 | 37879 ft | 423 kts | 240° |
| 2026-05-04 18:16 | 42.87789 | -68.59713 | 37876 ft | 423 kts | 240° |
| 2026-05-04 18:16 | 42.84741 | -68.66600 | 37877 ft | 424 kts | 240° |
| 2026-05-04 18:17 | 42.80157 | -68.76927 | 37876 ft | 424 kts | 240° |
| 2026-05-04 18:18 | 42.75588 | -68.87186 | 37884 ft | 424 kts | 240° |
| 2026-05-04 18:18 | 42.72513 | -68.94073 | 37876 ft | 426 kts | 240° |
| 2026-05-04 18:19 | 42.67884 | -69.04407 | 37877 ft | 426 kts | 240° |
| 2026-05-04 18:19 | 42.64788 | -69.11298 | 37879 ft | 426 kts | 240° |
| 2026-05-04 18:20 | 42.61716 | -69.18118 | 37875 ft | 425 kts | 240° |
| 2026-05-04 18:20 | 42.58613 | -69.24993 | 37881 ft | 427 kts | 240° |
| 2026-05-04 18:21 | 42.55515 | -69.31841 | 37874 ft | 428 kts | 240° |
| 2026-05-04 18:21 | 42.52392 | -69.38727 | 37857 ft | 428 kts | 240° |
| 2026-05-04 18:22 | 42.49269 | -69.45599 | 37883 ft | 427 kts | 240° |
| 2026-05-04 18:22 | 42.46168 | -69.52405 | 37884 ft | 426 kts | 240° |
| 2026-05-04 18:23 | 42.43040 | -69.59256 | 37887 ft | 428 kts | 240° |
| 2026-05-04 18:23 | 42.39893 | -69.66131 | 37890 ft | 429 kts | 240° |
| 2026-05-04 18:24 | 42.36764 | -69.72954 | 37884 ft | 428 kts | 239° |
| 2026-05-04 18:24 | 42.33622 | -69.79785 | 37878 ft | 427 kts | 239° |
| 2026-05-04 18:25 | 42.30473 | -69.86620 | 37899 ft | 427 kts | 239° |
| 2026-05-04 18:25 | 42.27320 | -69.93446 | 37892 ft | 429 kts | 239° |
| 2026-05-04 18:26 | 42.24169 | -70.00253 | 37868 ft | 429 kts | 239° |
| 2026-05-04 18:26 | 42.21001 | -70.07079 | 37891 ft | 428 kts | 239° |
| 2026-05-04 18:27 | 42.17832 | -70.13896 | 37890 ft | 427 kts | 239° |
| 2026-05-04 18:27 | 42.14684 | -70.20649 | 37899 ft | 428 kts | 239° |
| 2026-05-04 18:28 | 42.11507 | -70.27451 | 37891 ft | 429 kts | 239° |
| 2026-05-04 18:28 | 42.08315 | -70.34268 | 37884 ft | 430 kts | 239° |
| 2026-05-04 18:29 | 42.05151 | -70.41039 | 37880 ft | 429 kts | 240° |
| 2026-05-04 18:29 | 42.02597 | -70.48267 | 37860 ft | 427 kts | 248° |
| 2026-05-04 18:30 | 41.99133 | -70.59352 | 37860 ft | 428 kts | 248° |
| 2026-05-04 18:31 | 41.96822 | -70.66702 | 37782 ft | 431 kts | 248° |
| 2026-05-04 18:31 | 41.95653 | -70.70407 | 37525 ft | 429 kts | 248° |
| 2026-05-04 18:31 | 41.94486 | -70.74100 | 37261 ft | 429 kts | 248° |
| 2026-05-04 18:31 | 41.93314 | -70.77801 | 36991 ft | 429 kts | 248° |
| 2026-05-04 18:32 | 41.92141 | -70.81502 | 36727 ft | 430 kts | 248° |
| 2026-05-04 18:32 | 41.90981 | -70.85159 | 36498 ft | 430 kts | 248° |
| 2026-05-04 18:32 | 41.89808 | -70.88849 | 36257 ft | 431 kts | 248° |
| 2026-05-04 18:32 | 41.88622 | -70.92573 | 36000 ft | 433 kts | 249° |
| 2026-05-04 18:33 | 41.87433 | -70.96306 | 35759 ft | 435 kts | 249° |
| 2026-05-04 18:33 | 41.86240 | -71.00043 | 35512 ft | 436 kts | 249° |
| 2026-05-04 18:33 | 41.85043 | -71.03788 | 35270 ft | 437 kts | 249° |
| 2026-05-04 18:33 | 41.83855 | -71.07500 | 34996 ft | 437 kts | 249° |
| 2026-05-04 18:34 | 41.82653 | -71.11252 | 34767 ft | 437 kts | 249° |
| 2026-05-04 18:34 | 41.81449 | -71.15003 | 34527 ft | 437 kts | 249° |
| 2026-05-04 18:34 | 41.80244 | -71.18750 | 34283 ft | 438 kts | 249° |
| 2026-05-04 18:34 | 41.79035 | -71.22508 | 34061 ft | 438 kts | 249° |
| 2026-05-04 18:35 | 41.77841 | -71.26215 | 33848 ft | 439 kts | 249° |
| 2026-05-04 18:35 | 41.76628 | -71.29972 | 33566 ft | 439 kts | 249° |
| 2026-05-04 18:35 | 41.75411 | -71.33740 | 33281 ft | 440 kts | 249° |
| 2026-05-04 18:35 | 41.74192 | -71.37506 | 33011 ft | 441 kts | 249° |
| 2026-05-04 18:36 | 41.72809 | -71.41187 | 32733 ft | 445 kts | 242° |
| 2026-05-04 18:36 | 41.70904 | -71.44508 | 32454 ft | 452 kts | 230° |
| 2026-05-04 18:36 | 41.68563 | -71.47351 | 32190 ft | 456 kts | 224° |
| 2026-05-04 18:36 | 41.66145 | -71.50043 | 31923 ft | 458 kts | 224° |
| 2026-05-04 18:37 | 41.63677 | -71.52771 | 31661 ft | 459 kts | 224° |
| 2026-05-04 18:37 | 41.62410 | -71.54174 | 31528 ft | 460 kts | 224° |
| 2026-05-04 18:37 | 41.59948 | -71.56906 | 31263 ft | 461 kts | 224° |
| 2026-05-04 18:38 | 41.57500 | -71.59624 | 31021 ft | 462 kts | 224° |
| 2026-05-04 18:38 | 41.55020 | -71.62378 | 30778 ft | 464 kts | 224° |
| 2026-05-04 18:38 | 41.52539 | -71.65134 | 30511 ft | 465 kts | 224° |
| 2026-05-04 18:38 | 41.50047 | -71.67899 | 30217 ft | 465 kts | 224° |
| 2026-05-04 18:39 | 41.47553 | -71.70663 | 29337 ft | 467 kts | 224° |
| 2026-05-04 18:39 | 41.45050 | -71.73438 | 28434 ft | 467 kts | 224° |
| 2026-05-04 18:39 | 41.42585 | -71.76163 | 27783 ft | 463 kts | 224° |
| 2026-05-04 18:39 | 41.40111 | -71.78896 | 27115 ft | 459 kts | 224° |
| 2026-05-04 18:40 | 41.39650 | -71.79405 | 26989 ft | 458 kts | 224° |
| 2026-05-04 18:40 | 41.38878 | -71.80258 | 26778 ft | 457 kts | 224° |
| 2026-05-04 18:40 | 41.36433 | -71.82955 | 26141 ft | 453 kts | 224° |
| 2026-05-04 18:40 | 41.34022 | -71.85614 | 25503 ft | 449 kts | 224° |
| 2026-05-04 18:41 | 41.31618 | -71.88263 | 24848 ft | 446 kts | 224° |
| 2026-05-04 18:41 | 41.29230 | -71.90892 | 24200 ft | 443 kts | 224° |
| 2026-05-04 18:41 | 41.26891 | -71.93466 | 23643 ft | 438 kts | 224° |
| 2026-05-04 18:41 | 41.24545 | -71.96042 | 23165 ft | 435 kts | 224° |
| 2026-05-04 18:42 | 41.22215 | -71.98600 | 22677 ft | 433 kts | 224° |
| 2026-05-04 18:42 | 41.19895 | -72.01143 | 22217 ft | 430 kts | 224° |
| 2026-05-04 18:42 | 41.17596 | -72.03661 | 21786 ft | 426 kts | 224° |
| 2026-05-04 18:42 | 41.15318 | -72.06154 | 21347 ft | 423 kts | 224° |
| 2026-05-04 18:43 | 41.13055 | -72.08629 | 20910 ft | 419 kts | 224° |
| 2026-05-04 18:43 | 41.11616 | -72.10324 | 20602 ft | 414 kts | 229° |
| 2026-05-04 18:43 | 41.09440 | -72.14352 | 20030 ft | 400 kts | 248° |
| 2026-05-04 18:43 | 41.08455 | -72.17769 | 19608 ft | 394 kts | 254° |
| 2026-05-04 18:44 | 41.07608 | -72.21225 | 19187 ft | 392 kts | 255° |
| 2026-05-04 18:44 | 41.07326 | -72.22390 | 19034 ft | 391 kts | 255° |
| 2026-05-04 18:44 | 41.06226 | -72.26906 | 18500 ft | 387 kts | 254° |
| 2026-05-04 18:44 | 41.05119 | -72.31402 | 17915 ft | 384 kts | 254° |
| 2026-05-04 18:45 | 41.04556 | -72.33677 | 17628 ft | 383 kts | 254° |
| 2026-05-04 18:45 | 41.03727 | -72.37017 | 17201 ft | 380 kts | 254° |
| 2026-05-04 18:45 | 41.02909 | -72.40300 | 16816 ft | 378 kts | 254° |
| 2026-05-04 18:45 | 41.02086 | -72.43601 | 16408 ft | 376 kts | 254° |
| 2026-05-04 18:46 | 41.01267 | -72.46879 | 16020 ft | 374 kts | 254° |
| 2026-05-04 18:46 | 41.01173 | -72.47254 | 15976 ft | 373 kts | 254° |
| 2026-05-04 18:47 | 41.00372 | -72.50455 | 15600 ft | 371 kts | 253° |
| 2026-05-04 18:47 | 40.99560 | -72.53693 | 15200 ft | 369 kts | 253° |
| 2026-05-04 18:47 | 40.98748 | -72.56929 | 14807 ft | 367 kts | 253° |
| 2026-05-04 18:48 | 40.97953 | -72.60091 | 14424 ft | 365 kts | 253° |
| 2026-05-04 18:48 | 40.97153 | -72.63267 | 14042 ft | 364 kts | 253° |
| 2026-05-04 18:48 | 40.96359 | -72.66413 | 13829 ft | 353 kts | 253° |
| 2026-05-04 18:48 | 40.95590 | -72.69452 | 13563 ft | 341 kts | 253° |
| 2026-05-04 18:49 | 40.94849 | -72.72377 | 13283 ft | 326 kts | 253° |
| 2026-05-04 18:49 | 40.94154 | -72.75110 | 12866 ft | 301 kts | 254° |
| 2026-05-04 18:49 | 40.93500 | -72.77646 | 12407 ft | 281 kts | 252° |
| 2026-05-04 18:49 | 40.92619 | -72.79823 | 12130 ft | 271 kts | 236° |
| 2026-05-04 18:50 | 40.91208 | -72.81599 | 11991 ft | 286 kts | 222° |
| 2026-05-04 18:50 | 40.89612 | -72.83152 | 11768 ft | 283 kts | 220° |
| 2026-05-04 18:50 | 40.88011 | -72.84665 | 11464 ft | 282 kts | 220° |
| 2026-05-04 18:50 | 40.86416 | -72.86179 | 11141 ft | 281 kts | 220° |
| 2026-05-04 18:51 | 40.84848 | -72.87673 | 10851 ft | 280 kts | 220° |
| 2026-05-04 18:51 | 40.83270 | -72.89181 | 10552 ft | 279 kts | 221° |
| 2026-05-04 18:51 | 40.81702 | -72.90680 | 10266 ft | 277 kts | 220° |
| 2026-05-04 18:51 | 40.80143 | -72.92171 | 10001 ft | 275 kts | 221° |
| 2026-05-04 18:52 | 40.78596 | -72.93649 | 9738 ft | 274 kts | 220° |
| 2026-05-04 18:52 | 40.77058 | -72.95120 | 9478 ft | 272 kts | 221° |
| 2026-05-04 18:52 | 40.75521 | -72.96590 | 9224 ft | 273 kts | 221° |
| 2026-05-04 18:52 | 40.73998 | -72.98044 | 8991 ft | 271 kts | 221° |
| 2026-05-04 18:53 | 40.72470 | -72.99503 | 8767 ft | 271 kts | 221° |
| 2026-05-04 18:53 | 40.70945 | -73.00959 | 8545 ft | 269 kts | 220° |
| 2026-05-04 18:53 | 40.69559 | -73.02571 | 8273 ft | 262 kts | 234° |
| 2026-05-04 18:53 | 40.68720 | -73.04647 | 8070 ft | 256 kts | 256° |
| 2026-05-04 18:54 | 40.68521 | -73.06969 | 7835 ft | 255 kts | 270° |
| 2026-05-04 18:54 | 40.68536 | -73.09265 | 7587 ft | 252 kts | 271° |
| 2026-05-04 18:54 | 40.68565 | -73.11587 | 7399 ft | 254 kts | 271° |
| 2026-05-04 18:54 | 40.68588 | -73.13898 | 7167 ft | 251 kts | 271° |
| 2026-05-04 18:55 | 40.68606 | -73.16209 | 6950 ft | 252 kts | 270° |
| 2026-05-04 18:55 | 40.68633 | -73.20814 | 6502 ft | 250 kts | 270° |
| 2026-05-04 18:55 | 40.68644 | -73.22863 | 6291 ft | 249 kts | 270° |
| 2026-05-04 18:57 | 40.68646 | -73.23206 | 6256 ft | 250 kts | 270° |
| 2026-05-04 18:57 | 40.68656 | -73.25485 | 6021 ft | 247 kts | 270° |
| 2026-05-04 18:58 | 40.68666 | -73.27761 | 5809 ft | 248 kts | 270° |
| 2026-05-04 18:58 | 40.68675 | -73.30036 | 5606 ft | 247 kts | 270° |
| 2026-05-04 18:58 | 40.68788 | -73.32286 | 5363 ft | 247 kts | 281° |
| 2026-05-04 18:58 | 40.69431 | -73.34360 | 5147 ft | 251 kts | 303° |
| 2026-05-04 18:59 | 40.70679 | -73.36016 | 4916 ft | 257 kts | 319° |
| 2026-05-04 18:59 | 40.72154 | -73.37371 | 4676 ft | 260 kts | 324° |
| 2026-05-04 18:59 | 40.73717 | -73.38595 | 4452 ft | 262 kts | 327° |
| 2026-05-04 18:59 | 40.75286 | -73.39764 | 4216 ft | 259 kts | 327° |
| 2026-05-04 19:00 | 40.76697 | -73.41210 | 4013 ft | 256 kts | 309° |
| 2026-05-04 19:00 | 40.77837 | -73.43004 | 3917 ft | 253 kts | 304° |
| 2026-05-04 19:00 | 40.78849 | -73.44902 | 3609 ft | 252 kts | 301° |
| 2026-05-04 19:00 | 40.79786 | -73.46870 | 3331 ft | 253 kts | 298° |
| 2026-05-04 19:01 | 40.80681 | -73.48852 | 3081 ft | 251 kts | 298° |
| 2026-05-04 19:01 | 40.81542 | -73.50851 | 2976 ft | 250 kts | 294° |
| 2026-05-04 19:01 | 40.82049 | -73.53036 | 2932 ft | 245 kts | 276° |
| 2026-05-04 19:01 | 40.81962 | -73.55189 | 2781 ft | 233 kts | 256° |
| 2026-05-04 19:02 | 40.81503 | -73.57200 | 2635 ft | 224 kts | 251° |
| 2026-05-04 19:02 | 40.81001 | -73.59105 | 2455 ft | 215 kts | 250° |
| 2026-05-04 19:02 | 40.80515 | -73.60924 | 2269 ft | 206 kts | 251° |
| 2026-05-04 19:02 | 40.79973 | -73.62636 | 2089 ft | 199 kts | 239° |
| 2026-05-04 19:03 | 40.79089 | -73.63987 | 1976 ft | 191 kts | 220° |
| 2026-05-04 19:03 | 40.78013 | -73.64921 | 2000 ft | 178 kts | 214° |
| 2026-05-04 19:03 | 40.76990 | -73.65699 | 2009 ft | 160 kts | 214° |
| 2026-05-04 19:03 | 40.76068 | -73.66429 | 1998 ft | 161 kts | 215° |
| 2026-05-04 19:04 | 40.75099 | -73.67204 | 2000 ft | 163 kts | 214° |
| 2026-05-04 19:04 | 40.74124 | -73.67977 | 1989 ft | 164 kts | 213° |
| 2026-05-04 19:04 | 40.73144 | -73.68746 | 1982 ft | 164 kts | 214° |
| 2026-05-04 19:04 | 40.72165 | -73.69505 | 1791 ft | 161 kts | 214° |
| 2026-05-04 19:05 | 40.71241 | -73.70223 | 1595 ft | 145 kts | 215° |
| 2026-05-04 19:05 | 40.70404 | -73.70881 | 1384 ft | 134 kts | 214° |
| 2026-05-04 19:05 | 40.69657 | -73.71465 | 1219 ft | 121 kts | 213° |
| 2026-05-04 19:05 | 40.68934 | -73.72037 | 1077 ft | 120 kts | 215° |
| 2026-05-04 19:06 | 40.68217 | -73.72619 | 884 ft | 120 kts | 213° |
| 2026-05-04 19:06 | 40.67498 | -73.73166 | 704 ft | 119 kts | 211° |
| 2026-05-04 19:06 | 40.66790 | -73.73734 | 589 ft | 118 kts | 209° |
| 2026-05-04 19:06 | 40.66065 | -73.74302 | 411 ft | 121 kts | 208° |
| 2026-05-04 19:07 | 40.65359 | -73.74840 | 238 ft | 115 kts | 209° |
| 2026-05-04 19:07 | 40.64666 | -73.75378 | 103 ft | 116 kts | 205° |
| 2026-05-04 19:07 | 40.63981 | -73.75891 | 27 ft | 101 kts | 212° |
| 2026-05-04 19:07 | 40.63539 | -73.76250 | 27 ft | 49 kts | 211° |
| 2026-05-04 19:08 | 40.63323 | -73.76455 | 28 ft | 35 kts | 226° |
| 2026-05-04 19:08 | 40.63241 | -73.76637 | 26 ft | 19 kts | 251° |
| 2026-05-04 19:08 | 40.63254 | -73.76756 | 26 ft | 13 kts | 300° |
| 2026-05-04 19:08 | 40.63303 | -73.76862 | 29 ft | 14 kts | 301° |
| 2026-05-04 19:09 | 40.63354 | -73.76975 | 29 ft | 15 kts | 301° |
| 2026-05-04 19:09 | 40.63409 | -73.77096 | 27 ft | 16 kts | 300° |
| 2026-05-04 19:09 | 40.63464 | -73.77220 | 28 ft | 16 kts | 300° |
| 2026-05-04 19:09 | 40.63525 | -73.77362 | 27 ft | 19 kts | 299° |
| 2026-05-04 19:10 | 40.63595 | -73.77513 | 27 ft | 21 kts | 302° |
| 2026-05-04 19:10 | 40.63665 | -73.77638 | 29 ft | 17 kts | 307° |
| 2026-05-04 19:10 | 40.63713 | -73.77663 | 27 ft | 7 kts | 7° |
| 2026-05-04 19:10 | 40.63769 | -73.77673 | 31 ft | 9 kts | 326° |
| 2026-05-04 19:11 | 40.63823 | -73.77730 | 27 ft | 13 kts | 321° |
| 2026-05-04 19:11 | 40.63883 | -73.77790 | 27 ft | 5 kts | 323° |
| 2026-05-04 19:11 | 40.63897 | -73.77803 | 27 ft | 1 kts | 325° |
| 2026-05-04 19:11 | 40.63909 | -73.77813 | 27 ft | 3 kts | 327° |
| 2026-05-04 19:12 | 40.63925 | -73.77826 | 27 ft | 2 kts | 327° |
| 2026-05-04 19:12 | 40.63973 | -73.77860 | 27 ft | 6 kts | 332° |
| 2026-05-04 19:12 | 40.64017 | -73.77886 | 27 ft | 8 kts | 345° |
| 2026-05-04 19:13 | 40.64078 | -73.77897 | 27 ft | 10 kts | 342° |
| 2026-05-04 19:13 | 40.64137 | -73.77950 | 27 ft | 11 kts | 313° |
| 2026-05-04 19:13 | 40.64172 | -73.78023 | 27 ft | 7 kts | 302° |
| 2026-05-04 19:13 | 40.64201 | -73.78046 | 27 ft | 4 kts | 356° |
| 2026-05-04 19:14 | 40.64234 | -73.78043 | 27 ft | 6 kts | 5° |
| 2026-05-04 19:14 | 40.64275 | -73.78037 | 27 ft | 2 kts | 7° |
| 2026-05-04 19:14 | 40.64288 | -73.78035 | 27 ft | 0 kts | 7° |
| 2026-05-04 19:14 | 40.64295 | -73.78033 | 27 ft | 1 kts | 7° |